<?xml version="1.0" encoding="utf-8"?>
<gpx xmlns:xsi="http://www.w3.org/2001/XMLSchema-instance" xmlns:xsd="http://www.w3.org/2001/XMLSchema" version="1.1" creator="Shapelink.com" xmlns="http://www.topografix.com/GPX/1/1" xmlns:gpxtpx="http://www.garmin.com/xmlschemas/TrackPointExtension/v1">
  <metadata>
    <name>Løping 5.20 km, 2012-03-29</name>
    <desc></desc>
    <author><name>Mikael Blom</name></author> 
    <time>2012-03-29T17:51:44Z</time>
  </metadata>
  <trk>
    <name>Løping 5.20 km, 2012-03-29</name>
    <trkseg>
      <trkpt lat="59.9585853" lon="17.7211894">
        <ele>41.474</ele>
        <time>2012-03-29T17:51:44Z</time>
      </trkpt>
      <trkpt lat="59.9585164" lon="17.7210827">
        <ele>44.358</ele>
        <time>2012-03-29T17:51:49Z</time>
      </trkpt>
      <trkpt lat="59.9584902" lon="17.7209995">
        <ele>44.358</ele>
        <time>2012-03-29T17:51:52Z</time>
      </trkpt>
      <trkpt lat="59.9584633" lon="17.7209701">
        <ele>44.8386</ele>
        <time>2012-03-29T17:51:54Z</time>
      </trkpt>
      <trkpt lat="59.9583784" lon="17.7208338">
        <ele>45.3192</ele>
        <time>2012-03-29T17:51:58Z</time>
      </trkpt>
      <trkpt lat="59.9582895" lon="17.7207319">
        <ele>45.3192</ele>
        <time>2012-03-29T17:52:02Z</time>
      </trkpt>
      <trkpt lat="59.9582134" lon="17.7206206">
        <ele>45.7999</ele>
        <time>2012-03-29T17:52:06Z</time>
      </trkpt>
      <trkpt lat="59.9581975" lon="17.7205937">
        <ele>46.2806</ele>
        <time>2012-03-29T17:52:07Z</time>
      </trkpt>
      <trkpt lat="59.9581051" lon="17.7203686">
        <ele>47.2418</ele>
        <time>2012-03-29T17:52:13Z</time>
      </trkpt>
      <trkpt lat="59.9580463" lon="17.7202623">
        <ele>47.7225</ele>
        <time>2012-03-29T17:52:16Z</time>
      </trkpt>
      <trkpt lat="59.9579637" lon="17.7201007">
        <ele>50.126</ele>
        <time>2012-03-29T17:52:21Z</time>
      </trkpt>
      <trkpt lat="59.9578955" lon="17.7199884">
        <ele>50.126</ele>
        <time>2012-03-29T17:52:26Z</time>
      </trkpt>
      <trkpt lat="59.9578532" lon="17.7198982">
        <ele>51.0872</ele>
        <time>2012-03-29T17:52:30Z</time>
      </trkpt>
      <trkpt lat="59.9577817" lon="17.7198101">
        <ele>52.5292</ele>
        <time>2012-03-29T17:52:34Z</time>
      </trkpt>
      <trkpt lat="59.957635" lon="17.7194281">
        <ele>52.0486</ele>
        <time>2012-03-29T17:52:43Z</time>
      </trkpt>
      <trkpt lat="59.957582" lon="17.7192274">
        <ele>52.0486</ele>
        <time>2012-03-29T17:52:48Z</time>
      </trkpt>
      <trkpt lat="59.9574926" lon="17.7190177">
        <ele>52.5292</ele>
        <time>2012-03-29T17:52:53Z</time>
      </trkpt>
      <trkpt lat="59.9574282" lon="17.7188519">
        <ele>52.5292</ele>
        <time>2012-03-29T17:52:57Z</time>
      </trkpt>
      <trkpt lat="59.9573355" lon="17.7186577">
        <ele>53.0098</ele>
        <time>2012-03-29T17:53:02Z</time>
      </trkpt>
      <trkpt lat="59.9572302" lon="17.7183831">
        <ele>51.0872</ele>
        <time>2012-03-29T17:53:08Z</time>
      </trkpt>
      <trkpt lat="59.9571427" lon="17.7181931">
        <ele>49.6453</ele>
        <time>2012-03-29T17:53:12Z</time>
      </trkpt>
      <trkpt lat="59.9571299" lon="17.7181373">
        <ele>49.1646</ele>
        <time>2012-03-29T17:53:13Z</time>
      </trkpt>
      <trkpt lat="59.9570345" lon="17.7179248">
        <ele>48.2034</ele>
        <time>2012-03-29T17:53:18Z</time>
      </trkpt>
      <trkpt lat="59.956964" lon="17.7177598">
        <ele>46.2806</ele>
        <time>2012-03-29T17:53:23Z</time>
      </trkpt>
      <trkpt lat="59.9569386" lon="17.717702">
        <ele>45.3192</ele>
        <time>2012-03-29T17:53:25Z</time>
      </trkpt>
      <trkpt lat="59.956876" lon="17.7175855">
        <ele>45.3192</ele>
        <time>2012-03-29T17:53:29Z</time>
      </trkpt>
      <trkpt lat="59.9567806" lon="17.7174252">
        <ele>46.7612</ele>
        <time>2012-03-29T17:53:33Z</time>
      </trkpt>
      <trkpt lat="59.9567278" lon="17.7172827">
        <ele>47.2418</ele>
        <time>2012-03-29T17:53:37Z</time>
      </trkpt>
      <trkpt lat="59.9566958" lon="17.7171755">
        <ele>47.2418</ele>
        <time>2012-03-29T17:53:40Z</time>
      </trkpt>
      <trkpt lat="59.9566436" lon="17.7170411">
        <ele>47.7225</ele>
        <time>2012-03-29T17:53:44Z</time>
      </trkpt>
      <trkpt lat="59.9566166" lon="17.7169697">
        <ele>47.2418</ele>
        <time>2012-03-29T17:53:46Z</time>
      </trkpt>
      <trkpt lat="59.9565197" lon="17.7167504">
        <ele>47.7225</ele>
        <time>2012-03-29T17:53:52Z</time>
      </trkpt>
      <trkpt lat="59.9564548" lon="17.7165577">
        <ele>47.7225</ele>
        <time>2012-03-29T17:53:58Z</time>
      </trkpt>
      <trkpt lat="59.9563437" lon="17.7163775">
        <ele>47.2418</ele>
        <time>2012-03-29T17:54:04Z</time>
      </trkpt>
      <trkpt lat="59.9562835" lon="17.7162216">
        <ele>45.7999</ele>
        <time>2012-03-29T17:54:08Z</time>
      </trkpt>
      <trkpt lat="59.9562629" lon="17.7161779">
        <ele>45.3192</ele>
        <time>2012-03-29T17:54:09Z</time>
      </trkpt>
      <trkpt lat="59.9561382" lon="17.7159136">
        <ele>44.358</ele>
        <time>2012-03-29T17:54:15Z</time>
      </trkpt>
      <trkpt lat="59.9560814" lon="17.7157885">
        <ele>43.8773</ele>
        <time>2012-03-29T17:54:19Z</time>
      </trkpt>
      <trkpt lat="59.9560041" lon="17.7156061">
        <ele>45.3192</ele>
        <time>2012-03-29T17:54:24Z</time>
      </trkpt>
      <trkpt lat="59.9559098" lon="17.7153875">
        <ele>47.7225</ele>
        <time>2012-03-29T17:54:29Z</time>
      </trkpt>
      <trkpt lat="59.9558353" lon="17.7152378">
        <ele>48.2034</ele>
        <time>2012-03-29T17:54:33Z</time>
      </trkpt>
      <trkpt lat="59.9557462" lon="17.7150421">
        <ele>47.7225</ele>
        <time>2012-03-29T17:54:38Z</time>
      </trkpt>
      <trkpt lat="59.9556534" lon="17.7148232">
        <ele>47.2418</ele>
        <time>2012-03-29T17:54:43Z</time>
      </trkpt>
      <trkpt lat="59.9556109" lon="17.7146327">
        <ele>45.7999</ele>
        <time>2012-03-29T17:54:47Z</time>
      </trkpt>
      <trkpt lat="59.9555372" lon="17.7143726">
        <ele>44.358</ele>
        <time>2012-03-29T17:54:53Z</time>
      </trkpt>
      <trkpt lat="59.9554894" lon="17.7140646">
        <ele>43.8773</ele>
        <time>2012-03-29T17:54:59Z</time>
      </trkpt>
      <trkpt lat="59.9554662" lon="17.7138742">
        <ele>43.8773</ele>
        <time>2012-03-29T17:55:03Z</time>
      </trkpt>
      <trkpt lat="59.9554156" lon="17.7136924">
        <ele>42.916</ele>
        <time>2012-03-29T17:55:08Z</time>
      </trkpt>
      <trkpt lat="59.9553412" lon="17.7135621">
        <ele>43.3966</ele>
        <time>2012-03-29T17:55:13Z</time>
      </trkpt>
      <trkpt lat="59.9552131" lon="17.7134947">
        <ele>43.8773</ele>
        <time>2012-03-29T17:55:20Z</time>
      </trkpt>
      <trkpt lat="59.9551628" lon="17.7134876">
        <ele>43.3966</ele>
        <time>2012-03-29T17:55:27Z</time>
      </trkpt>
      <trkpt lat="59.955149" lon="17.7134864">
        <ele>43.3966</ele>
        <time>2012-03-29T17:55:33Z</time>
      </trkpt>
      <trkpt lat="59.9551258" lon="17.7134802">
        <ele>42.916</ele>
        <time>2012-03-29T17:55:35Z</time>
      </trkpt>
      <trkpt lat="59.9550113" lon="17.7134461">
        <ele>44.358</ele>
        <time>2012-03-29T17:55:41Z</time>
      </trkpt>
      <trkpt lat="59.954917" lon="17.7133736">
        <ele>43.8773</ele>
        <time>2012-03-29T17:55:45Z</time>
      </trkpt>
      <trkpt lat="59.9547822" lon="17.7132652">
        <ele>42.4354</ele>
        <time>2012-03-29T17:55:51Z</time>
      </trkpt>
      <trkpt lat="59.9546791" lon="17.7131325">
        <ele>41.474</ele>
        <time>2012-03-29T17:55:56Z</time>
      </trkpt>
      <trkpt lat="59.9545902" lon="17.7129239">
        <ele>42.916</ele>
        <time>2012-03-29T17:56:02Z</time>
      </trkpt>
      <trkpt lat="59.9545635" lon="17.712832">
        <ele>43.3966</ele>
        <time>2012-03-29T17:56:05Z</time>
      </trkpt>
      <trkpt lat="59.9544816" lon="17.7125897">
        <ele>43.8773</ele>
        <time>2012-03-29T17:56:11Z</time>
      </trkpt>
      <trkpt lat="59.9543927" lon="17.7124198">
        <ele>43.8773</ele>
        <time>2012-03-29T17:56:16Z</time>
      </trkpt>
      <trkpt lat="59.9543031" lon="17.7122664">
        <ele>43.8773</ele>
        <time>2012-03-29T17:56:21Z</time>
      </trkpt>
      <trkpt lat="59.954242" lon="17.7122418">
        <ele>43.8773</ele>
        <time>2012-03-29T17:56:24Z</time>
      </trkpt>
      <trkpt lat="59.9541556" lon="17.7123599">
        <ele>44.8386</ele>
        <time>2012-03-29T17:56:29Z</time>
      </trkpt>
      <trkpt lat="59.9541161" lon="17.7124151">
        <ele>45.3192</ele>
        <time>2012-03-29T17:56:31Z</time>
      </trkpt>
      <trkpt lat="59.954043" lon="17.712538">
        <ele>45.7999</ele>
        <time>2012-03-29T17:56:35Z</time>
      </trkpt>
      <trkpt lat="59.9539591" lon="17.712545">
        <ele>46.2806</ele>
        <time>2012-03-29T17:56:38Z</time>
      </trkpt>
      <trkpt lat="59.9539244" lon="17.7124801">
        <ele>46.2806</ele>
        <time>2012-03-29T17:56:40Z</time>
      </trkpt>
      <trkpt lat="59.9538316" lon="17.7123073">
        <ele>46.7612</ele>
        <time>2012-03-29T17:56:45Z</time>
      </trkpt>
      <trkpt lat="59.9537868" lon="17.7122406">
        <ele>46.2806</ele>
        <time>2012-03-29T17:56:49Z</time>
      </trkpt>
      <trkpt lat="59.9537609" lon="17.7121974">
        <ele>46.2806</ele>
        <time>2012-03-29T17:56:52Z</time>
      </trkpt>
      <trkpt lat="59.9537321" lon="17.7121396">
        <ele>46.2806</ele>
        <time>2012-03-29T17:56:56Z</time>
      </trkpt>
      <trkpt lat="59.9537106" lon="17.7121094">
        <ele>48.2034</ele>
        <time>2012-03-29T17:57:00Z</time>
      </trkpt>
      <trkpt lat="59.9536524" lon="17.7120391">
        <ele>48.684</ele>
        <time>2012-03-29T17:57:05Z</time>
      </trkpt>
      <trkpt lat="59.9536358" lon="17.7119951">
        <ele>49.1646</ele>
        <time>2012-03-29T17:57:07Z</time>
      </trkpt>
      <trkpt lat="59.9535593" lon="17.7118856">
        <ele>49.1646</ele>
        <time>2012-03-29T17:57:13Z</time>
      </trkpt>
      <trkpt lat="59.9535508" lon="17.7118682">
        <ele>49.1646</ele>
        <time>2012-03-29T17:57:14Z</time>
      </trkpt>
      <trkpt lat="59.9534593" lon="17.7117365">
        <ele>49.1646</ele>
        <time>2012-03-29T17:57:20Z</time>
      </trkpt>
      <trkpt lat="59.953422" lon="17.7116766">
        <ele>49.1646</ele>
        <time>2012-03-29T17:57:23Z</time>
      </trkpt>
      <trkpt lat="59.9533588" lon="17.7115983">
        <ele>48.2034</ele>
        <time>2012-03-29T17:57:27Z</time>
      </trkpt>
      <trkpt lat="59.9532697" lon="17.7115276">
        <ele>48.684</ele>
        <time>2012-03-29T17:57:34Z</time>
      </trkpt>
      <trkpt lat="59.9532599" lon="17.711509">
        <ele>48.684</ele>
        <time>2012-03-29T17:57:35Z</time>
      </trkpt>
      <trkpt lat="59.953233" lon="17.7114589">
        <ele>48.2034</ele>
        <time>2012-03-29T17:57:39Z</time>
      </trkpt>
      <trkpt lat="59.9531713" lon="17.7113543">
        <ele>48.684</ele>
        <time>2012-03-29T17:57:43Z</time>
      </trkpt>
      <trkpt lat="59.9531079" lon="17.7112409">
        <ele>47.7225</ele>
        <time>2012-03-29T17:57:46Z</time>
      </trkpt>
      <trkpt lat="59.9530953" lon="17.7112154">
        <ele>47.7225</ele>
        <time>2012-03-29T17:57:47Z</time>
      </trkpt>
      <trkpt lat="59.953065" lon="17.7111127">
        <ele>47.2418</ele>
        <time>2012-03-29T17:57:52Z</time>
      </trkpt>
      <trkpt lat="59.9530799" lon="17.7111114">
        <ele>47.7225</ele>
        <time>2012-03-29T17:57:53Z</time>
      </trkpt>
      <trkpt lat="59.9530317" lon="17.7110351">
        <ele>48.2034</ele>
        <time>2012-03-29T17:57:59Z</time>
      </trkpt>
      <trkpt lat="59.9530167" lon="17.7110083">
        <ele>48.2034</ele>
        <time>2012-03-29T17:58:00Z</time>
      </trkpt>
      <trkpt lat="59.9529937" lon="17.7109678">
        <ele>47.7225</ele>
        <time>2012-03-29T17:58:02Z</time>
      </trkpt>
      <trkpt lat="59.9529507" lon="17.7108233">
        <ele>45.7999</ele>
        <time>2012-03-29T17:58:07Z</time>
      </trkpt>
      <trkpt lat="59.9529304" lon="17.7107322">
        <ele>45.3192</ele>
        <time>2012-03-29T17:58:10Z</time>
      </trkpt>
      <trkpt lat="59.952931" lon="17.7106566">
        <ele>44.8386</ele>
        <time>2012-03-29T17:58:13Z</time>
      </trkpt>
      <trkpt lat="59.9529122" lon="17.7106142">
        <ele>44.8386</ele>
        <time>2012-03-29T17:58:15Z</time>
      </trkpt>
      <trkpt lat="59.9528553" lon="17.7104763">
        <ele>45.7999</ele>
        <time>2012-03-29T17:58:21Z</time>
      </trkpt>
      <trkpt lat="59.952767" lon="17.710393">
        <ele>46.2806</ele>
        <time>2012-03-29T17:58:25Z</time>
      </trkpt>
      <trkpt lat="59.9527543" lon="17.7103761">
        <ele>45.7999</ele>
        <time>2012-03-29T17:58:26Z</time>
      </trkpt>
      <trkpt lat="59.9526922" lon="17.7103022">
        <ele>46.2806</ele>
        <time>2012-03-29T17:58:31Z</time>
      </trkpt>
      <trkpt lat="59.9526643" lon="17.7102365">
        <ele>47.2418</ele>
        <time>2012-03-29T17:58:35Z</time>
      </trkpt>
      <trkpt lat="59.9526041" lon="17.710151">
        <ele>48.684</ele>
        <time>2012-03-29T17:58:39Z</time>
      </trkpt>
      <trkpt lat="59.952572" lon="17.7101014">
        <ele>48.684</ele>
        <time>2012-03-29T17:58:42Z</time>
      </trkpt>
      <trkpt lat="59.9525321" lon="17.710052">
        <ele>48.684</ele>
        <time>2012-03-29T17:58:46Z</time>
      </trkpt>
      <trkpt lat="59.9525056" lon="17.7100244">
        <ele>49.1646</ele>
        <time>2012-03-29T17:58:48Z</time>
      </trkpt>
      <trkpt lat="59.9524512" lon="17.7100055">
        <ele>48.684</ele>
        <time>2012-03-29T17:58:52Z</time>
      </trkpt>
      <trkpt lat="59.9524374" lon="17.7099917">
        <ele>48.2034</ele>
        <time>2012-03-29T17:58:53Z</time>
      </trkpt>
      <trkpt lat="59.9523052" lon="17.7098858">
        <ele>46.7612</ele>
        <time>2012-03-29T17:59:01Z</time>
      </trkpt>
      <trkpt lat="59.9522441" lon="17.7098758">
        <ele>45.7999</ele>
        <time>2012-03-29T17:59:05Z</time>
      </trkpt>
      <trkpt lat="59.9521398" lon="17.7098527">
        <ele>43.8773</ele>
        <time>2012-03-29T17:59:10Z</time>
      </trkpt>
      <trkpt lat="59.9520539" lon="17.7098398">
        <ele>42.4354</ele>
        <time>2012-03-29T17:59:15Z</time>
      </trkpt>
      <trkpt lat="59.9519353" lon="17.7097867">
        <ele>42.4354</ele>
        <time>2012-03-29T17:59:23Z</time>
      </trkpt>
      <trkpt lat="59.9519182" lon="17.7097696">
        <ele>43.3966</ele>
        <time>2012-03-29T17:59:24Z</time>
      </trkpt>
      <trkpt lat="59.9518457" lon="17.7097659">
        <ele>47.7225</ele>
        <time>2012-03-29T17:59:31Z</time>
      </trkpt>
      <trkpt lat="59.9517842" lon="17.7097923">
        <ele>48.684</ele>
        <time>2012-03-29T17:59:36Z</time>
      </trkpt>
      <trkpt lat="59.9516882" lon="17.7098375">
        <ele>52.0486</ele>
        <time>2012-03-29T17:59:43Z</time>
      </trkpt>
      <trkpt lat="59.9516789" lon="17.7098504">
        <ele>52.5292</ele>
        <time>2012-03-29T17:59:44Z</time>
      </trkpt>
      <trkpt lat="59.9516001" lon="17.709883">
        <ele>48.684</ele>
        <time>2012-03-29T17:59:49Z</time>
      </trkpt>
      <trkpt lat="59.9514914" lon="17.7099498">
        <ele>49.1646</ele>
        <time>2012-03-29T17:59:56Z</time>
      </trkpt>
      <trkpt lat="59.9514354" lon="17.709962">
        <ele>49.1646</ele>
        <time>2012-03-29T18:00:00Z</time>
      </trkpt>
      <trkpt lat="59.9513822" lon="17.7099734">
        <ele>49.6453</ele>
        <time>2012-03-29T18:00:03Z</time>
      </trkpt>
      <trkpt lat="59.9512727" lon="17.7100111">
        <ele>48.684</ele>
        <time>2012-03-29T18:00:09Z</time>
      </trkpt>
      <trkpt lat="59.9511614" lon="17.710052">
        <ele>50.126</ele>
        <time>2012-03-29T18:00:15Z</time>
      </trkpt>
      <trkpt lat="59.9511433" lon="17.7100495">
        <ele>49.6453</ele>
        <time>2012-03-29T18:00:16Z</time>
      </trkpt>
      <trkpt lat="59.9510314" lon="17.7100292">
        <ele>47.2418</ele>
        <time>2012-03-29T18:00:22Z</time>
      </trkpt>
      <trkpt lat="59.9509595" lon="17.7100153">
        <ele>43.8773</ele>
        <time>2012-03-29T18:00:26Z</time>
      </trkpt>
      <trkpt lat="59.9509027" lon="17.7099951">
        <ele>45.7999</ele>
        <time>2012-03-29T18:00:31Z</time>
      </trkpt>
      <trkpt lat="59.950877" lon="17.7099666">
        <ele>44.8386</ele>
        <time>2012-03-29T18:00:33Z</time>
      </trkpt>
      <trkpt lat="59.9508485" lon="17.7099151">
        <ele>45.3192</ele>
        <time>2012-03-29T18:00:37Z</time>
      </trkpt>
      <trkpt lat="59.9508271" lon="17.7099163">
        <ele>44.8386</ele>
        <time>2012-03-29T18:00:41Z</time>
      </trkpt>
      <trkpt lat="59.9507313" lon="17.7098515">
        <ele>46.7612</ele>
        <time>2012-03-29T18:00:50Z</time>
      </trkpt>
      <trkpt lat="59.95066" lon="17.7098416">
        <ele>47.7225</ele>
        <time>2012-03-29T18:00:56Z</time>
      </trkpt>
      <trkpt lat="59.9506489" lon="17.7098391">
        <ele>48.2034</ele>
        <time>2012-03-29T18:00:57Z</time>
      </trkpt>
      <trkpt lat="59.9506393" lon="17.709836">
        <ele>48.2034</ele>
        <time>2012-03-29T18:00:58Z</time>
      </trkpt>
      <trkpt lat="59.9505383" lon="17.7097448">
        <ele>48.2034</ele>
        <time>2012-03-29T18:01:03Z</time>
      </trkpt>
      <trkpt lat="59.9504818" lon="17.7096328">
        <ele>49.1646</ele>
        <time>2012-03-29T18:01:08Z</time>
      </trkpt>
      <trkpt lat="59.9504113" lon="17.7095531">
        <ele>50.6066</ele>
        <time>2012-03-29T18:01:13Z</time>
      </trkpt>
      <trkpt lat="59.9503267" lon="17.7094564">
        <ele>52.0486</ele>
        <time>2012-03-29T18:01:17Z</time>
      </trkpt>
      <trkpt lat="59.9503115" lon="17.7094408">
        <ele>52.0486</ele>
        <time>2012-03-29T18:01:18Z</time>
      </trkpt>
      <trkpt lat="59.9502656" lon="17.7093456">
        <ele>53.4905</ele>
        <time>2012-03-29T18:01:22Z</time>
      </trkpt>
      <trkpt lat="59.9501921" lon="17.7092278">
        <ele>54.4518</ele>
        <time>2012-03-29T18:01:28Z</time>
      </trkpt>
      <trkpt lat="59.950156" lon="17.7091528">
        <ele>55.4131</ele>
        <time>2012-03-29T18:01:32Z</time>
      </trkpt>
      <trkpt lat="59.9501202" lon="17.7090464">
        <ele>57.8165</ele>
        <time>2012-03-29T18:01:36Z</time>
      </trkpt>
      <trkpt lat="59.9501016" lon="17.7090317">
        <ele>58.7777</ele>
        <time>2012-03-29T18:01:38Z</time>
      </trkpt>
      <trkpt lat="59.9500622" lon="17.7090114">
        <ele>60.7003</ele>
        <time>2012-03-29T18:01:42Z</time>
      </trkpt>
      <trkpt lat="59.9500437" lon="17.7090071">
        <ele>61.6617</ele>
        <time>2012-03-29T18:01:44Z</time>
      </trkpt>
      <trkpt lat="59.9500342" lon="17.7089657">
        <ele>62.6229</ele>
        <time>2012-03-29T18:01:48Z</time>
      </trkpt>
      <trkpt lat="59.95001" lon="17.7089578">
        <ele>63.1036</ele>
        <time>2012-03-29T18:01:52Z</time>
      </trkpt>
      <trkpt lat="59.9499838" lon="17.7089921">
        <ele>63.5844</ele>
        <time>2012-03-29T18:01:56Z</time>
      </trkpt>
      <trkpt lat="59.9499581" lon="17.7090809">
        <ele>63.5844</ele>
        <time>2012-03-29T18:02:01Z</time>
      </trkpt>
      <trkpt lat="59.9499432" lon="17.7091578">
        <ele>64.5457</ele>
        <time>2012-03-29T18:02:05Z</time>
      </trkpt>
      <trkpt lat="59.9498917" lon="17.7092957">
        <ele>64.5457</ele>
        <time>2012-03-29T18:02:12Z</time>
      </trkpt>
      <trkpt lat="59.9498602" lon="17.7094253">
        <ele>65.0264</ele>
        <time>2012-03-29T18:02:17Z</time>
      </trkpt>
      <trkpt lat="59.9498426" lon="17.7095279">
        <ele>65.9877</ele>
        <time>2012-03-29T18:02:24Z</time>
      </trkpt>
      <trkpt lat="59.9498396" lon="17.70961">
        <ele>66.4683</ele>
        <time>2012-03-29T18:02:29Z</time>
      </trkpt>
      <trkpt lat="59.949883" lon="17.7096769">
        <ele>66.949</ele>
        <time>2012-03-29T18:02:34Z</time>
      </trkpt>
      <trkpt lat="59.9498999" lon="17.7097045">
        <ele>66.949</ele>
        <time>2012-03-29T18:02:36Z</time>
      </trkpt>
      <trkpt lat="59.9499592" lon="17.709805">
        <ele>63.5844</ele>
        <time>2012-03-29T18:02:43Z</time>
      </trkpt>
      <trkpt lat="59.9499638" lon="17.7098537">
        <ele>63.1036</ele>
        <time>2012-03-29T18:02:45Z</time>
      </trkpt>
      <trkpt lat="59.9499515" lon="17.7100423">
        <ele>60.7003</ele>
        <time>2012-03-29T18:02:52Z</time>
      </trkpt>
      <trkpt lat="59.9499488" lon="17.710126">
        <ele>59.2584</ele>
        <time>2012-03-29T18:02:56Z</time>
      </trkpt>
      <trkpt lat="59.9499948" lon="17.7102099">
        <ele>58.7777</ele>
        <time>2012-03-29T18:03:02Z</time>
      </trkpt>
      <trkpt lat="59.9500394" lon="17.7102997">
        <ele>57.3358</ele>
        <time>2012-03-29T18:03:09Z</time>
      </trkpt>
      <trkpt lat="59.9500573" lon="17.7103829">
        <ele>57.3358</ele>
        <time>2012-03-29T18:03:14Z</time>
      </trkpt>
      <trkpt lat="59.9500884" lon="17.710437">
        <ele>57.3358</ele>
        <time>2012-03-29T18:03:18Z</time>
      </trkpt>
      <trkpt lat="59.9500979" lon="17.710452">
        <ele>56.8551</ele>
        <time>2012-03-29T18:03:19Z</time>
      </trkpt>
      <trkpt lat="59.9501492" lon="17.7105235">
        <ele>55.4131</ele>
        <time>2012-03-29T18:03:25Z</time>
      </trkpt>
      <trkpt lat="59.950178" lon="17.7105638">
        <ele>53.9712</ele>
        <time>2012-03-29T18:03:31Z</time>
      </trkpt>
      <trkpt lat="59.9502134" lon="17.7106037">
        <ele>52.0486</ele>
        <time>2012-03-29T18:03:35Z</time>
      </trkpt>
      <trkpt lat="59.9502658" lon="17.7106892">
        <ele>51.0872</ele>
        <time>2012-03-29T18:03:40Z</time>
      </trkpt>
      <trkpt lat="59.9503251" lon="17.7107828">
        <ele>51.5679</ele>
        <time>2012-03-29T18:03:45Z</time>
      </trkpt>
      <trkpt lat="59.9503662" lon="17.7108204">
        <ele>52.5292</ele>
        <time>2012-03-29T18:03:49Z</time>
      </trkpt>
      <trkpt lat="59.9504098" lon="17.710856">
        <ele>53.0098</ele>
        <time>2012-03-29T18:03:54Z</time>
      </trkpt>
      <trkpt lat="59.9504236" lon="17.7108746">
        <ele>53.0098</ele>
        <time>2012-03-29T18:03:56Z</time>
      </trkpt>
      <trkpt lat="59.950476" lon="17.7109969">
        <ele>51.5679</ele>
        <time>2012-03-29T18:04:02Z</time>
      </trkpt>
      <trkpt lat="59.9505222" lon="17.7110845">
        <ele>50.126</ele>
        <time>2012-03-29T18:04:07Z</time>
      </trkpt>
      <trkpt lat="59.9505715" lon="17.7111657">
        <ele>50.126</ele>
        <time>2012-03-29T18:04:12Z</time>
      </trkpt>
      <trkpt lat="59.9505875" lon="17.7112035">
        <ele>50.126</ele>
        <time>2012-03-29T18:04:14Z</time>
      </trkpt>
      <trkpt lat="59.9506014" lon="17.7112764">
        <ele>50.6066</ele>
        <time>2012-03-29T18:04:18Z</time>
      </trkpt>
      <trkpt lat="59.9505906" lon="17.7112694">
        <ele>50.126</ele>
        <time>2012-03-29T18:04:20Z</time>
      </trkpt>
      <trkpt lat="59.9505688" lon="17.7112077">
        <ele>49.1646</ele>
        <time>2012-03-29T18:04:23Z</time>
      </trkpt>
      <trkpt lat="59.9504634" lon="17.7110118">
        <ele>48.2034</ele>
        <time>2012-03-29T18:04:28Z</time>
      </trkpt>
      <trkpt lat="59.950402" lon="17.7108989">
        <ele>47.7225</ele>
        <time>2012-03-29T18:04:32Z</time>
      </trkpt>
      <trkpt lat="59.9503927" lon="17.7108752">
        <ele>47.7225</ele>
        <time>2012-03-29T18:04:33Z</time>
      </trkpt>
      <trkpt lat="59.9503265" lon="17.7107632">
        <ele>48.2034</ele>
        <time>2012-03-29T18:04:38Z</time>
      </trkpt>
      <trkpt lat="59.9503077" lon="17.7107403">
        <ele>48.684</ele>
        <time>2012-03-29T18:04:39Z</time>
      </trkpt>
      <trkpt lat="59.9502683" lon="17.7106857">
        <ele>48.684</ele>
        <time>2012-03-29T18:04:41Z</time>
      </trkpt>
      <trkpt lat="59.9501718" lon="17.7105389">
        <ele>50.6066</ele>
        <time>2012-03-29T18:04:46Z</time>
      </trkpt>
      <trkpt lat="59.9500901" lon="17.7104218">
        <ele>53.0098</ele>
        <time>2012-03-29T18:04:51Z</time>
      </trkpt>
      <trkpt lat="59.9500482" lon="17.7103483">
        <ele>53.9712</ele>
        <time>2012-03-29T18:04:54Z</time>
      </trkpt>
      <trkpt lat="59.9499937" lon="17.7102867">
        <ele>54.9324</ele>
        <time>2012-03-29T18:04:58Z</time>
      </trkpt>
      <trkpt lat="59.9499322" lon="17.7102033">
        <ele>56.8551</ele>
        <time>2012-03-29T18:05:03Z</time>
      </trkpt>
      <trkpt lat="59.9498586" lon="17.7100996">
        <ele>58.2971</ele>
        <time>2012-03-29T18:05:09Z</time>
      </trkpt>
      <trkpt lat="59.9498171" lon="17.7100282">
        <ele>59.2584</ele>
        <time>2012-03-29T18:05:13Z</time>
      </trkpt>
      <trkpt lat="59.949779" lon="17.7099506">
        <ele>59.7391</ele>
        <time>2012-03-29T18:05:17Z</time>
      </trkpt>
      <trkpt lat="59.9497709" lon="17.7099261">
        <ele>59.7391</ele>
        <time>2012-03-29T18:05:18Z</time>
      </trkpt>
      <trkpt lat="59.9497499" lon="17.709893">
        <ele>60.7003</ele>
        <time>2012-03-29T18:05:21Z</time>
      </trkpt>
      <trkpt lat="59.9497384" lon="17.7098863">
        <ele>61.6617</ele>
        <time>2012-03-29T18:05:26Z</time>
      </trkpt>
      <trkpt lat="59.9497158" lon="17.7099482">
        <ele>63.1036</ele>
        <time>2012-03-29T18:05:32Z</time>
      </trkpt>
      <trkpt lat="59.9497224" lon="17.7100038">
        <ele>64.0651</ele>
        <time>2012-03-29T18:05:36Z</time>
      </trkpt>
      <trkpt lat="59.9497492" lon="17.7100686">
        <ele>64.5457</ele>
        <time>2012-03-29T18:05:40Z</time>
      </trkpt>
      <trkpt lat="59.9497767" lon="17.710152">
        <ele>63.1036</ele>
        <time>2012-03-29T18:05:45Z</time>
      </trkpt>
      <trkpt lat="59.9497817" lon="17.7101728">
        <ele>62.6229</ele>
        <time>2012-03-29T18:05:46Z</time>
      </trkpt>
      <trkpt lat="59.9498233" lon="17.7102469">
        <ele>60.7003</ele>
        <time>2012-03-29T18:05:51Z</time>
      </trkpt>
      <trkpt lat="59.9498344" lon="17.7103096">
        <ele>58.2971</ele>
        <time>2012-03-29T18:05:55Z</time>
      </trkpt>
      <trkpt lat="59.9498669" lon="17.7103575">
        <ele>56.8551</ele>
        <time>2012-03-29T18:05:58Z</time>
      </trkpt>
      <trkpt lat="59.9498815" lon="17.7103821">
        <ele>56.3745</ele>
        <time>2012-03-29T18:06:00Z</time>
      </trkpt>
      <trkpt lat="59.9499036" lon="17.7104142">
        <ele>55.8938</ele>
        <time>2012-03-29T18:06:03Z</time>
      </trkpt>
      <trkpt lat="59.9499538" lon="17.7104519">
        <ele>54.9324</ele>
        <time>2012-03-29T18:06:07Z</time>
      </trkpt>
      <trkpt lat="59.9499748" lon="17.710484">
        <ele>54.9324</ele>
        <time>2012-03-29T18:06:10Z</time>
      </trkpt>
      <trkpt lat="59.9500304" lon="17.7105115">
        <ele>53.9712</ele>
        <time>2012-03-29T18:06:15Z</time>
      </trkpt>
      <trkpt lat="59.9500781" lon="17.7105246">
        <ele>52.0486</ele>
        <time>2012-03-29T18:06:21Z</time>
      </trkpt>
      <trkpt lat="59.9501218" lon="17.7105497">
        <ele>51.5679</ele>
        <time>2012-03-29T18:06:26Z</time>
      </trkpt>
      <trkpt lat="59.9501667" lon="17.7105686">
        <ele>51.5679</ele>
        <time>2012-03-29T18:06:31Z</time>
      </trkpt>
      <trkpt lat="59.9501998" lon="17.7106881">
        <ele>51.0872</ele>
        <time>2012-03-29T18:06:36Z</time>
      </trkpt>
      <trkpt lat="59.9502185" lon="17.7107658">
        <ele>50.126</ele>
        <time>2012-03-29T18:06:39Z</time>
      </trkpt>
      <trkpt lat="59.9502431" lon="17.7108985">
        <ele>48.2034</ele>
        <time>2012-03-29T18:06:45Z</time>
      </trkpt>
      <trkpt lat="59.9502853" lon="17.7110205">
        <ele>46.7612</ele>
        <time>2012-03-29T18:06:50Z</time>
      </trkpt>
      <trkpt lat="59.9502865" lon="17.7111262">
        <ele>46.7612</ele>
        <time>2012-03-29T18:06:55Z</time>
      </trkpt>
      <trkpt lat="59.950292" lon="17.711191">
        <ele>46.7612</ele>
        <time>2012-03-29T18:06:59Z</time>
      </trkpt>
      <trkpt lat="59.9502565" lon="17.7111819">
        <ele>45.3192</ele>
        <time>2012-03-29T18:07:04Z</time>
      </trkpt>
      <trkpt lat="59.9502418" lon="17.711175">
        <ele>46.2806</ele>
        <time>2012-03-29T18:07:07Z</time>
      </trkpt>
      <trkpt lat="59.9502378" lon="17.7111843">
        <ele>46.2806</ele>
        <time>2012-03-29T18:07:15Z</time>
      </trkpt>
      <trkpt lat="59.9502378" lon="17.7111876">
        <ele>47.2418</ele>
        <time>2012-03-29T18:07:21Z</time>
      </trkpt>
      <trkpt lat="59.9502044" lon="17.7111772">
        <ele>47.7225</ele>
        <time>2012-03-29T18:07:31Z</time>
      </trkpt>
      <trkpt lat="59.9501755" lon="17.7111637">
        <ele>48.2034</ele>
        <time>2012-03-29T18:07:38Z</time>
      </trkpt>
      <trkpt lat="59.9501739" lon="17.7111621">
        <ele>48.2034</ele>
        <time>2012-03-29T18:07:39Z</time>
      </trkpt>
      <trkpt lat="59.9501708" lon="17.7111252">
        <ele>48.2034</ele>
        <time>2012-03-29T18:07:41Z</time>
      </trkpt>
      <trkpt lat="59.9501746" lon="17.7109087">
        <ele>51.5679</ele>
        <time>2012-03-29T18:07:46Z</time>
      </trkpt>
      <trkpt lat="59.9501684" lon="17.7107972">
        <ele>52.0486</ele>
        <time>2012-03-29T18:07:48Z</time>
      </trkpt>
      <trkpt lat="59.9501434" lon="17.7107015">
        <ele>52.0486</ele>
        <time>2012-03-29T18:07:51Z</time>
      </trkpt>
      <trkpt lat="59.950099" lon="17.7106234">
        <ele>53.0098</ele>
        <time>2012-03-29T18:07:55Z</time>
      </trkpt>
      <trkpt lat="59.9500677" lon="17.7106037">
        <ele>53.9712</ele>
        <time>2012-03-29T18:07:57Z</time>
      </trkpt>
      <trkpt lat="59.950004" lon="17.7106051">
        <ele>54.9324</ele>
        <time>2012-03-29T18:08:00Z</time>
      </trkpt>
      <trkpt lat="59.9499188" lon="17.7106256">
        <ele>57.3358</ele>
        <time>2012-03-29T18:08:04Z</time>
      </trkpt>
      <trkpt lat="59.9497924" lon="17.7106916">
        <ele>60.7003</ele>
        <time>2012-03-29T18:08:10Z</time>
      </trkpt>
      <trkpt lat="59.9497757" lon="17.7107114">
        <ele>61.181</ele>
        <time>2012-03-29T18:08:11Z</time>
      </trkpt>
      <trkpt lat="59.9497115" lon="17.7107181">
        <ele>62.1423</ele>
        <time>2012-03-29T18:08:15Z</time>
      </trkpt>
      <trkpt lat="59.9496947" lon="17.7105735">
        <ele>61.6617</ele>
        <time>2012-03-29T18:08:20Z</time>
      </trkpt>
      <trkpt lat="59.9496809" lon="17.7105108">
        <ele>62.1423</ele>
        <time>2012-03-29T18:08:23Z</time>
      </trkpt>
      <trkpt lat="59.9496385" lon="17.7104416">
        <ele>62.6229</ele>
        <time>2012-03-29T18:08:27Z</time>
      </trkpt>
      <trkpt lat="59.949624" lon="17.7104301">
        <ele>62.6229</ele>
        <time>2012-03-29T18:08:28Z</time>
      </trkpt>
      <trkpt lat="59.949556" lon="17.7103564">
        <ele>64.5457</ele>
        <time>2012-03-29T18:08:33Z</time>
      </trkpt>
      <trkpt lat="59.9495261" lon="17.7103303">
        <ele>65.0264</ele>
        <time>2012-03-29T18:08:40Z</time>
      </trkpt>
      <trkpt lat="59.9495198" lon="17.7103163">
        <ele>65.9877</ele>
        <time>2012-03-29T18:08:46Z</time>
      </trkpt>
      <trkpt lat="59.9495329" lon="17.710306">
        <ele>67.9103</ele>
        <time>2012-03-29T18:08:50Z</time>
      </trkpt>
      <trkpt lat="59.9495162" lon="17.7103757">
        <ele>67.9103</ele>
        <time>2012-03-29T18:08:54Z</time>
      </trkpt>
      <trkpt lat="59.9495104" lon="17.7103934">
        <ele>67.4297</ele>
        <time>2012-03-29T18:08:55Z</time>
      </trkpt>
      <trkpt lat="59.9494994" lon="17.7104861">
        <ele>67.4297</ele>
        <time>2012-03-29T18:08:59Z</time>
      </trkpt>
      <trkpt lat="59.9494959" lon="17.7105062">
        <ele>67.9103</ele>
        <time>2012-03-29T18:09:00Z</time>
      </trkpt>
      <trkpt lat="59.9494942" lon="17.7105548">
        <ele>67.4297</ele>
        <time>2012-03-29T18:09:03Z</time>
      </trkpt>
      <trkpt lat="59.9494953" lon="17.7106515">
        <ele>65.9877</ele>
        <time>2012-03-29T18:09:07Z</time>
      </trkpt>
      <trkpt lat="59.949464" lon="17.7107">
        <ele>64.5457</ele>
        <time>2012-03-29T18:09:10Z</time>
      </trkpt>
      <trkpt lat="59.9494312" lon="17.7108032">
        <ele>62.6229</ele>
        <time>2012-03-29T18:09:15Z</time>
      </trkpt>
      <trkpt lat="59.9494103" lon="17.7108851">
        <ele>59.7391</ele>
        <time>2012-03-29T18:09:19Z</time>
      </trkpt>
      <trkpt lat="59.9493985" lon="17.7109637">
        <ele>56.8551</ele>
        <time>2012-03-29T18:09:23Z</time>
      </trkpt>
      <trkpt lat="59.9494245" lon="17.7110179">
        <ele>55.8938</ele>
        <time>2012-03-29T18:09:27Z</time>
      </trkpt>
      <trkpt lat="59.9494526" lon="17.7110543">
        <ele>55.8938</ele>
        <time>2012-03-29T18:09:29Z</time>
      </trkpt>
      <trkpt lat="59.9495455" lon="17.711106">
        <ele>54.4518</ele>
        <time>2012-03-29T18:09:36Z</time>
      </trkpt>
      <trkpt lat="59.9496012" lon="17.7110638">
        <ele>54.4518</ele>
        <time>2012-03-29T18:09:40Z</time>
      </trkpt>
      <trkpt lat="59.9496787" lon="17.7110692">
        <ele>54.9324</ele>
        <time>2012-03-29T18:09:46Z</time>
      </trkpt>
      <trkpt lat="59.9497052" lon="17.7110697">
        <ele>53.9712</ele>
        <time>2012-03-29T18:09:48Z</time>
      </trkpt>
      <trkpt lat="59.9497333" lon="17.7110627">
        <ele>53.4905</ele>
        <time>2012-03-29T18:09:50Z</time>
      </trkpt>
      <trkpt lat="59.9498121" lon="17.7110321">
        <ele>52.5292</ele>
        <time>2012-03-29T18:09:56Z</time>
      </trkpt>
      <trkpt lat="59.9498845" lon="17.71097">
        <ele>52.5292</ele>
        <time>2012-03-29T18:10:02Z</time>
      </trkpt>
      <trkpt lat="59.9499196" lon="17.7109273">
        <ele>53.0098</ele>
        <time>2012-03-29T18:10:05Z</time>
      </trkpt>
      <trkpt lat="59.9499275" lon="17.7109087">
        <ele>53.0098</ele>
        <time>2012-03-29T18:10:06Z</time>
      </trkpt>
      <trkpt lat="59.95" lon="17.7108467">
        <ele>53.0098</ele>
        <time>2012-03-29T18:10:11Z</time>
      </trkpt>
      <trkpt lat="59.9500705" lon="17.7108337">
        <ele>52.0486</ele>
        <time>2012-03-29T18:10:17Z</time>
      </trkpt>
      <trkpt lat="59.9500823" lon="17.7108451">
        <ele>51.5679</ele>
        <time>2012-03-29T18:10:18Z</time>
      </trkpt>
      <trkpt lat="59.9500995" lon="17.7110264">
        <ele>48.684</ele>
        <time>2012-03-29T18:10:24Z</time>
      </trkpt>
      <trkpt lat="59.9500813" lon="17.7110754">
        <ele>48.684</ele>
        <time>2012-03-29T18:10:26Z</time>
      </trkpt>
      <trkpt lat="59.9500367" lon="17.7111803">
        <ele>48.2034</ele>
        <time>2012-03-29T18:10:30Z</time>
      </trkpt>
      <trkpt lat="59.9499933" lon="17.7112933">
        <ele>47.2418</ele>
        <time>2012-03-29T18:10:36Z</time>
      </trkpt>
      <trkpt lat="59.9499787" lon="17.7113212">
        <ele>47.2418</ele>
        <time>2012-03-29T18:10:39Z</time>
      </trkpt>
      <trkpt lat="59.9499653" lon="17.7113244">
        <ele>47.7225</ele>
        <time>2012-03-29T18:10:48Z</time>
      </trkpt>
      <trkpt lat="59.9499658" lon="17.7113303">
        <ele>47.7225</ele>
        <time>2012-03-29T18:10:51Z</time>
      </trkpt>
      <trkpt lat="59.9499715" lon="17.7113137">
        <ele>47.2418</ele>
        <time>2012-03-29T18:10:53Z</time>
      </trkpt>
      <trkpt lat="59.9500672" lon="17.7111855">
        <ele>47.2418</ele>
        <time>2012-03-29T18:10:58Z</time>
      </trkpt>
      <trkpt lat="59.9500936" lon="17.7111614">
        <ele>47.2418</ele>
        <time>2012-03-29T18:10:59Z</time>
      </trkpt>
      <trkpt lat="59.9501213" lon="17.7109936">
        <ele>48.684</ele>
        <time>2012-03-29T18:11:03Z</time>
      </trkpt>
      <trkpt lat="59.9500724" lon="17.7108934">
        <ele>50.126</ele>
        <time>2012-03-29T18:11:07Z</time>
      </trkpt>
      <trkpt lat="59.9499846" lon="17.7109496">
        <ele>51.5679</ele>
        <time>2012-03-29T18:11:11Z</time>
      </trkpt>
      <trkpt lat="59.9499311" lon="17.7110011">
        <ele>51.5679</ele>
        <time>2012-03-29T18:11:14Z</time>
      </trkpt>
      <trkpt lat="59.9499085" lon="17.7110112">
        <ele>51.5679</ele>
        <time>2012-03-29T18:11:15Z</time>
      </trkpt>
      <trkpt lat="59.9498317" lon="17.7110321">
        <ele>51.0872</ele>
        <time>2012-03-29T18:11:18Z</time>
      </trkpt>
      <trkpt lat="59.949724" lon="17.7110398">
        <ele>50.126</ele>
        <time>2012-03-29T18:11:23Z</time>
      </trkpt>
      <trkpt lat="59.9497022" lon="17.7110394">
        <ele>49.6453</ele>
        <time>2012-03-29T18:11:24Z</time>
      </trkpt>
      <trkpt lat="59.9495975" lon="17.7110153">
        <ele>50.6066</ele>
        <time>2012-03-29T18:11:29Z</time>
      </trkpt>
      <trkpt lat="59.9495078" lon="17.7109868">
        <ele>52.5292</ele>
        <time>2012-03-29T18:11:34Z</time>
      </trkpt>
      <trkpt lat="59.9494352" lon="17.7109513">
        <ele>55.4131</ele>
        <time>2012-03-29T18:11:38Z</time>
      </trkpt>
      <trkpt lat="59.9493596" lon="17.7108367">
        <ele>57.8165</ele>
        <time>2012-03-29T18:11:43Z</time>
      </trkpt>
      <trkpt lat="59.9493839" lon="17.7107462">
        <ele>59.2584</ele>
        <time>2012-03-29T18:11:46Z</time>
      </trkpt>
      <trkpt lat="59.9493996" lon="17.7107233">
        <ele>60.2197</ele>
        <time>2012-03-29T18:11:47Z</time>
      </trkpt>
      <trkpt lat="59.949454" lon="17.7106493">
        <ele>61.6617</ele>
        <time>2012-03-29T18:11:50Z</time>
      </trkpt>
      <trkpt lat="59.9495624" lon="17.7105198">
        <ele>64.5457</ele>
        <time>2012-03-29T18:11:55Z</time>
      </trkpt>
      <trkpt lat="59.9495912" lon="17.7104768">
        <ele>65.0264</ele>
        <time>2012-03-29T18:11:57Z</time>
      </trkpt>
      <trkpt lat="59.9496079" lon="17.7103991">
        <ele>65.9877</ele>
        <time>2012-03-29T18:12:02Z</time>
      </trkpt>
      <trkpt lat="59.9495943" lon="17.7103657">
        <ele>65.9877</ele>
        <time>2012-03-29T18:12:09Z</time>
      </trkpt>
      <trkpt lat="59.9495666" lon="17.7103648">
        <ele>66.949</ele>
        <time>2012-03-29T18:12:15Z</time>
      </trkpt>
      <trkpt lat="59.9495074" lon="17.7104691">
        <ele>68.8716</ele>
        <time>2012-03-29T18:12:23Z</time>
      </trkpt>
      <trkpt lat="59.9494876" lon="17.7105089">
        <ele>68.3909</ele>
        <time>2012-03-29T18:12:26Z</time>
      </trkpt>
      <trkpt lat="59.9494188" lon="17.7106353">
        <ele>66.949</ele>
        <time>2012-03-29T18:12:33Z</time>
      </trkpt>
      <trkpt lat="59.9493934" lon="17.710698">
        <ele>66.4683</ele>
        <time>2012-03-29T18:12:36Z</time>
      </trkpt>
      <trkpt lat="59.9493592" lon="17.7108152">
        <ele>64.0651</ele>
        <time>2012-03-29T18:12:42Z</time>
      </trkpt>
      <trkpt lat="59.9493639" lon="17.7109449">
        <ele>63.5844</ele>
        <time>2012-03-29T18:12:48Z</time>
      </trkpt>
      <trkpt lat="59.9493768" lon="17.7110478">
        <ele>64.0651</ele>
        <time>2012-03-29T18:12:51Z</time>
      </trkpt>
      <trkpt lat="59.9493758" lon="17.7111721">
        <ele>62.6229</ele>
        <time>2012-03-29T18:12:56Z</time>
      </trkpt>
      <trkpt lat="59.9493673" lon="17.7113019">
        <ele>59.7391</ele>
        <time>2012-03-29T18:13:01Z</time>
      </trkpt>
      <trkpt lat="59.9493669" lon="17.7113365">
        <ele>58.7777</ele>
        <time>2012-03-29T18:13:02Z</time>
      </trkpt>
      <trkpt lat="59.9493831" lon="17.7114232">
        <ele>55.4131</ele>
        <time>2012-03-29T18:13:07Z</time>
      </trkpt>
      <trkpt lat="59.949387" lon="17.7115036">
        <ele>53.0098</ele>
        <time>2012-03-29T18:13:10Z</time>
      </trkpt>
      <trkpt lat="59.9494193" lon="17.7116717">
        <ele>48.2034</ele>
        <time>2012-03-29T18:13:16Z</time>
      </trkpt>
      <trkpt lat="59.9494424" lon="17.7117141">
        <ele>47.2418</ele>
        <time>2012-03-29T18:13:19Z</time>
      </trkpt>
      <trkpt lat="59.9494498" lon="17.7118369">
        <ele>45.3192</ele>
        <time>2012-03-29T18:13:23Z</time>
      </trkpt>
      <trkpt lat="59.9494614" lon="17.7119413">
        <ele>43.3966</ele>
        <time>2012-03-29T18:13:27Z</time>
      </trkpt>
      <trkpt lat="59.9494862" lon="17.7120558">
        <ele>45.3192</ele>
        <time>2012-03-29T18:13:32Z</time>
      </trkpt>
      <trkpt lat="59.9495025" lon="17.7121343">
        <ele>46.2806</ele>
        <time>2012-03-29T18:13:35Z</time>
      </trkpt>
      <trkpt lat="59.9494668" lon="17.712164">
        <ele>47.2418</ele>
        <time>2012-03-29T18:13:39Z</time>
      </trkpt>
      <trkpt lat="59.9494577" lon="17.7121676">
        <ele>48.2034</ele>
        <time>2012-03-29T18:13:42Z</time>
      </trkpt>
      <trkpt lat="59.9494326" lon="17.7121438">
        <ele>48.2034</ele>
        <time>2012-03-29T18:13:45Z</time>
      </trkpt>
      <trkpt lat="59.949412" lon="17.7120661">
        <ele>47.7225</ele>
        <time>2012-03-29T18:13:47Z</time>
      </trkpt>
      <trkpt lat="59.9493815" lon="17.7117615">
        <ele>48.684</ele>
        <time>2012-03-29T18:13:53Z</time>
      </trkpt>
      <trkpt lat="59.9493513" lon="17.7115178">
        <ele>51.0872</ele>
        <time>2012-03-29T18:13:58Z</time>
      </trkpt>
      <trkpt lat="59.9493647" lon="17.7113611">
        <ele>51.5679</ele>
        <time>2012-03-29T18:14:02Z</time>
      </trkpt>
      <trkpt lat="59.9493728" lon="17.7112726">
        <ele>53.0098</ele>
        <time>2012-03-29T18:14:05Z</time>
      </trkpt>
      <trkpt lat="59.9493561" lon="17.7111927">
        <ele>53.0098</ele>
        <time>2012-03-29T18:14:07Z</time>
      </trkpt>
      <trkpt lat="59.9494023" lon="17.7111013">
        <ele>56.8551</ele>
        <time>2012-03-29T18:14:11Z</time>
      </trkpt>
      <trkpt lat="59.9493891" lon="17.7109896">
        <ele>58.2971</ele>
        <time>2012-03-29T18:14:14Z</time>
      </trkpt>
      <trkpt lat="59.949391" lon="17.7108537">
        <ele>61.181</ele>
        <time>2012-03-29T18:14:17Z</time>
      </trkpt>
      <trkpt lat="59.9494188" lon="17.7107073">
        <ele>64.0651</ele>
        <time>2012-03-29T18:14:21Z</time>
      </trkpt>
      <trkpt lat="59.9494555" lon="17.7105748">
        <ele>66.4683</ele>
        <time>2012-03-29T18:14:25Z</time>
      </trkpt>
      <trkpt lat="59.9495002" lon="17.7104927">
        <ele>67.9103</ele>
        <time>2012-03-29T18:14:28Z</time>
      </trkpt>
      <trkpt lat="59.9495355" lon="17.7104201">
        <ele>68.8716</ele>
        <time>2012-03-29T18:14:31Z</time>
      </trkpt>
      <trkpt lat="59.9495373" lon="17.7104106">
        <ele>68.8716</ele>
        <time>2012-03-29T18:14:32Z</time>
      </trkpt>
      <trkpt lat="59.9495489" lon="17.7103856">
        <ele>68.8716</ele>
        <time>2012-03-29T18:14:34Z</time>
      </trkpt>
      <trkpt lat="59.9495505" lon="17.7103519">
        <ele>67.9103</ele>
        <time>2012-03-29T18:14:41Z</time>
      </trkpt>
      <trkpt lat="59.9495448" lon="17.710356">
        <ele>66.4683</ele>
        <time>2012-03-29T18:14:48Z</time>
      </trkpt>
      <trkpt lat="59.9495117" lon="17.7103233">
        <ele>65.0264</ele>
        <time>2012-03-29T18:14:55Z</time>
      </trkpt>
      <trkpt lat="59.9495043" lon="17.7103815">
        <ele>65.0264</ele>
        <time>2012-03-29T18:15:00Z</time>
      </trkpt>
      <trkpt lat="59.9494758" lon="17.7104079">
        <ele>65.0264</ele>
        <time>2012-03-29T18:15:04Z</time>
      </trkpt>
      <trkpt lat="59.9494271" lon="17.7104678">
        <ele>65.0264</ele>
        <time>2012-03-29T18:15:10Z</time>
      </trkpt>
      <trkpt lat="59.9493954" lon="17.7105163">
        <ele>64.0651</ele>
        <time>2012-03-29T18:15:13Z</time>
      </trkpt>
      <trkpt lat="59.9493147" lon="17.7105732">
        <ele>63.1036</ele>
        <time>2012-03-29T18:15:20Z</time>
      </trkpt>
      <trkpt lat="59.9492366" lon="17.7106187">
        <ele>62.1423</ele>
        <time>2012-03-29T18:15:27Z</time>
      </trkpt>
      <trkpt lat="59.949162" lon="17.7106756">
        <ele>61.181</ele>
        <time>2012-03-29T18:15:33Z</time>
      </trkpt>
      <trkpt lat="59.9491342" lon="17.7107002">
        <ele>61.181</ele>
        <time>2012-03-29T18:15:35Z</time>
      </trkpt>
      <trkpt lat="59.9490978" lon="17.7108451">
        <ele>60.7003</ele>
        <time>2012-03-29T18:15:41Z</time>
      </trkpt>
      <trkpt lat="59.949112" lon="17.7109024">
        <ele>60.7003</ele>
        <time>2012-03-29T18:15:43Z</time>
      </trkpt>
      <trkpt lat="59.9491506" lon="17.7110247">
        <ele>59.2584</ele>
        <time>2012-03-29T18:15:50Z</time>
      </trkpt>
      <trkpt lat="59.9491852" lon="17.7110735">
        <ele>58.7777</ele>
        <time>2012-03-29T18:15:54Z</time>
      </trkpt>
      <trkpt lat="59.9492011" lon="17.7111341">
        <ele>57.8165</ele>
        <time>2012-03-29T18:15:58Z</time>
      </trkpt>
      <trkpt lat="59.9491909" lon="17.711186">
        <ele>57.8165</ele>
        <time>2012-03-29T18:16:02Z</time>
      </trkpt>
      <trkpt lat="59.9491396" lon="17.7112306">
        <ele>56.8551</ele>
        <time>2012-03-29T18:16:07Z</time>
      </trkpt>
      <trkpt lat="59.9491285" lon="17.7112345">
        <ele>56.3745</ele>
        <time>2012-03-29T18:16:08Z</time>
      </trkpt>
      <trkpt lat="59.9490858" lon="17.7112315">
        <ele>56.3745</ele>
        <time>2012-03-29T18:16:11Z</time>
      </trkpt>
      <trkpt lat="59.948995" lon="17.7111402">
        <ele>56.3745</ele>
        <time>2012-03-29T18:16:18Z</time>
      </trkpt>
      <trkpt lat="59.9489757" lon="17.7111068">
        <ele>56.3745</ele>
        <time>2012-03-29T18:16:20Z</time>
      </trkpt>
      <trkpt lat="59.9489317" lon="17.7110874">
        <ele>56.8551</ele>
        <time>2012-03-29T18:16:24Z</time>
      </trkpt>
      <trkpt lat="59.9488569" lon="17.7110414">
        <ele>56.8551</ele>
        <time>2012-03-29T18:16:29Z</time>
      </trkpt>
      <trkpt lat="59.9487567" lon="17.7110614">
        <ele>54.4518</ele>
        <time>2012-03-29T18:16:36Z</time>
      </trkpt>
      <trkpt lat="59.94869" lon="17.7110791">
        <ele>51.5679</ele>
        <time>2012-03-29T18:16:42Z</time>
      </trkpt>
      <trkpt lat="59.9486791" lon="17.7110819">
        <ele>51.0872</ele>
        <time>2012-03-29T18:16:43Z</time>
      </trkpt>
      <trkpt lat="59.948621" lon="17.7111161">
        <ele>50.126</ele>
        <time>2012-03-29T18:16:48Z</time>
      </trkpt>
      <trkpt lat="59.9485508" lon="17.7111435">
        <ele>49.1646</ele>
        <time>2012-03-29T18:16:54Z</time>
      </trkpt>
      <trkpt lat="59.948537" lon="17.7112003">
        <ele>48.684</ele>
        <time>2012-03-29T18:16:56Z</time>
      </trkpt>
      <trkpt lat="59.9485249" lon="17.71133">
        <ele>47.2418</ele>
        <time>2012-03-29T18:17:01Z</time>
      </trkpt>
      <trkpt lat="59.9485221" lon="17.7114128">
        <ele>48.2034</ele>
        <time>2012-03-29T18:17:05Z</time>
      </trkpt>
      <trkpt lat="59.9485154" lon="17.7114393">
        <ele>47.7225</ele>
        <time>2012-03-29T18:17:12Z</time>
      </trkpt>
      <trkpt lat="59.9485026" lon="17.7114134">
        <ele>46.2806</ele>
        <time>2012-03-29T18:17:21Z</time>
      </trkpt>
      <trkpt lat="59.9485041" lon="17.7113962">
        <ele>48.684</ele>
        <time>2012-03-29T18:17:31Z</time>
      </trkpt>
      <trkpt lat="59.948514" lon="17.7113785">
        <ele>50.6066</ele>
        <time>2012-03-29T18:17:48Z</time>
      </trkpt>
      <trkpt lat="59.9485133" lon="17.7113611">
        <ele>49.1646</ele>
        <time>2012-03-29T18:17:50Z</time>
      </trkpt>
      <trkpt lat="59.9485162" lon="17.7113379">
        <ele>48.684</ele>
        <time>2012-03-29T18:17:51Z</time>
      </trkpt>
      <trkpt lat="59.9485822" lon="17.7111803">
        <ele>47.7225</ele>
        <time>2012-03-29T18:17:56Z</time>
      </trkpt>
      <trkpt lat="59.9486235" lon="17.7110979">
        <ele>46.7612</ele>
        <time>2012-03-29T18:17:59Z</time>
      </trkpt>
      <trkpt lat="59.9487097" lon="17.7110537">
        <ele>48.2034</ele>
        <time>2012-03-29T18:18:03Z</time>
      </trkpt>
      <trkpt lat="59.948748" lon="17.7110341">
        <ele>48.2034</ele>
        <time>2012-03-29T18:18:05Z</time>
      </trkpt>
      <trkpt lat="59.9488338" lon="17.7109948">
        <ele>49.1646</ele>
        <time>2012-03-29T18:18:10Z</time>
      </trkpt>
      <trkpt lat="59.9488966" lon="17.7110431">
        <ele>50.126</ele>
        <time>2012-03-29T18:18:14Z</time>
      </trkpt>
      <trkpt lat="59.9489758" lon="17.7111439">
        <ele>50.6066</ele>
        <time>2012-03-29T18:18:19Z</time>
      </trkpt>
      <trkpt lat="59.9490739" lon="17.7112191">
        <ele>52.0486</ele>
        <time>2012-03-29T18:18:24Z</time>
      </trkpt>
      <trkpt lat="59.9491697" lon="17.7111734">
        <ele>52.5292</ele>
        <time>2012-03-29T18:18:29Z</time>
      </trkpt>
      <trkpt lat="59.9491878" lon="17.711157">
        <ele>53.0098</ele>
        <time>2012-03-29T18:18:30Z</time>
      </trkpt>
      <trkpt lat="59.949167" lon="17.7109787">
        <ele>55.8938</ele>
        <time>2012-03-29T18:18:35Z</time>
      </trkpt>
      <trkpt lat="59.9491203" lon="17.7108102">
        <ele>55.8938</ele>
        <time>2012-03-29T18:18:38Z</time>
      </trkpt>
      <trkpt lat="59.9491396" lon="17.7106453">
        <ele>55.8938</ele>
        <time>2012-03-29T18:18:42Z</time>
      </trkpt>
      <trkpt lat="59.9492059" lon="17.7105406">
        <ele>55.8938</ele>
        <time>2012-03-29T18:18:46Z</time>
      </trkpt>
      <trkpt lat="59.9492637" lon="17.7105244">
        <ele>55.8938</ele>
        <time>2012-03-29T18:18:49Z</time>
      </trkpt>
      <trkpt lat="59.949295" lon="17.7105287">
        <ele>55.8938</ele>
        <time>2012-03-29T18:18:52Z</time>
      </trkpt>
      <trkpt lat="59.94931" lon="17.7105238">
        <ele>56.3745</ele>
        <time>2012-03-29T18:18:53Z</time>
      </trkpt>
      <trkpt lat="59.9493479" lon="17.7105022">
        <ele>56.8551</ele>
        <time>2012-03-29T18:18:56Z</time>
      </trkpt>
      <trkpt lat="59.9494318" lon="17.7104654">
        <ele>56.3745</ele>
        <time>2012-03-29T18:19:00Z</time>
      </trkpt>
      <trkpt lat="59.9494502" lon="17.7104474">
        <ele>56.3745</ele>
        <time>2012-03-29T18:19:01Z</time>
      </trkpt>
      <trkpt lat="59.9494683" lon="17.7104198">
        <ele>57.8165</ele>
        <time>2012-03-29T18:19:03Z</time>
      </trkpt>
      <trkpt lat="59.9494975" lon="17.7103471">
        <ele>58.7777</ele>
        <time>2012-03-29T18:19:09Z</time>
      </trkpt>
      <trkpt lat="59.9494976" lon="17.7103036">
        <ele>58.2971</ele>
        <time>2012-03-29T18:19:13Z</time>
      </trkpt>
      <trkpt lat="59.9495111" lon="17.7102717">
        <ele>60.2197</ele>
        <time>2012-03-29T18:19:20Z</time>
      </trkpt>
      <trkpt lat="59.9495111" lon="17.7102368">
        <ele>61.181</ele>
        <time>2012-03-29T18:19:24Z</time>
      </trkpt>
      <trkpt lat="59.9495156" lon="17.7102365">
        <ele>62.6229</ele>
        <time>2012-03-29T18:19:28Z</time>
      </trkpt>
      <trkpt lat="59.9495108" lon="17.7102252">
        <ele>65.0264</ele>
        <time>2012-03-29T18:19:37Z</time>
      </trkpt>
      <trkpt lat="59.9495468" lon="17.7101528">
        <ele>65.0264</ele>
        <time>2012-03-29T18:19:42Z</time>
      </trkpt>
      <trkpt lat="59.9495783" lon="17.7100483">
        <ele>64.0651</ele>
        <time>2012-03-29T18:19:48Z</time>
      </trkpt>
      <trkpt lat="59.9496008" lon="17.7099983">
        <ele>63.5844</ele>
        <time>2012-03-29T18:19:51Z</time>
      </trkpt>
      <trkpt lat="59.9496394" lon="17.709907">
        <ele>63.5844</ele>
        <time>2012-03-29T18:19:56Z</time>
      </trkpt>
      <trkpt lat="59.9496764" lon="17.7097428">
        <ele>64.5457</ele>
        <time>2012-03-29T18:20:02Z</time>
      </trkpt>
      <trkpt lat="59.9497128" lon="17.7096511">
        <ele>65.0264</ele>
        <time>2012-03-29T18:20:06Z</time>
      </trkpt>
      <trkpt lat="59.9497598" lon="17.7095376">
        <ele>64.0651</ele>
        <time>2012-03-29T18:20:12Z</time>
      </trkpt>
      <trkpt lat="59.9497709" lon="17.7095014">
        <ele>61.6617</ele>
        <time>2012-03-29T18:20:16Z</time>
      </trkpt>
      <trkpt lat="59.9497852" lon="17.7094713">
        <ele>60.7003</ele>
        <time>2012-03-29T18:20:18Z</time>
      </trkpt>
      <trkpt lat="59.9498009" lon="17.7094541">
        <ele>62.1423</ele>
        <time>2012-03-29T18:20:24Z</time>
      </trkpt>
      <trkpt lat="59.9497818" lon="17.7095064">
        <ele>62.6229</ele>
        <time>2012-03-29T18:20:27Z</time>
      </trkpt>
      <trkpt lat="59.9497258" lon="17.7096618">
        <ele>63.1036</ele>
        <time>2012-03-29T18:20:35Z</time>
      </trkpt>
      <trkpt lat="59.949661" lon="17.7098377">
        <ele>64.0651</ele>
        <time>2012-03-29T18:20:44Z</time>
      </trkpt>
      <trkpt lat="59.9495872" lon="17.710047">
        <ele>64.5457</ele>
        <time>2012-03-29T18:20:54Z</time>
      </trkpt>
      <trkpt lat="59.9495447" lon="17.7101694">
        <ele>65.0264</ele>
        <time>2012-03-29T18:21:00Z</time>
      </trkpt>
      <trkpt lat="59.9495203" lon="17.7101839">
        <ele>65.5071</ele>
        <time>2012-03-29T18:21:06Z</time>
      </trkpt>
      <trkpt lat="59.9495028" lon="17.7101796">
        <ele>65.9877</ele>
        <time>2012-03-29T18:21:11Z</time>
      </trkpt>
      <trkpt lat="59.9494572" lon="17.7102633">
        <ele>65.9877</ele>
        <time>2012-03-29T18:21:17Z</time>
      </trkpt>
      <trkpt lat="59.9494468" lon="17.7102758">
        <ele>65.9877</ele>
        <time>2012-03-29T18:21:18Z</time>
      </trkpt>
      <trkpt lat="59.9493933" lon="17.7103513">
        <ele>64.5457</ele>
        <time>2012-03-29T18:21:23Z</time>
      </trkpt>
      <trkpt lat="59.9493764" lon="17.7103716">
        <ele>63.5844</ele>
        <time>2012-03-29T18:21:26Z</time>
      </trkpt>
      <trkpt lat="59.9493176" lon="17.7104505">
        <ele>61.181</ele>
        <time>2012-03-29T18:21:32Z</time>
      </trkpt>
      <trkpt lat="59.9492711" lon="17.7104565">
        <ele>59.7391</ele>
        <time>2012-03-29T18:21:36Z</time>
      </trkpt>
      <trkpt lat="59.9492169" lon="17.710429">
        <ele>58.7777</ele>
        <time>2012-03-29T18:21:42Z</time>
      </trkpt>
      <trkpt lat="59.9491824" lon="17.7104327">
        <ele>59.7391</ele>
        <time>2012-03-29T18:21:47Z</time>
      </trkpt>
      <trkpt lat="59.9491116" lon="17.7104434">
        <ele>58.7777</ele>
        <time>2012-03-29T18:21:53Z</time>
      </trkpt>
      <trkpt lat="59.9490748" lon="17.7104794">
        <ele>58.7777</ele>
        <time>2012-03-29T18:21:58Z</time>
      </trkpt>
      <trkpt lat="59.9490568" lon="17.7104873">
        <ele>58.2971</ele>
        <time>2012-03-29T18:22:00Z</time>
      </trkpt>
      <trkpt lat="59.9489996" lon="17.7104758">
        <ele>57.3358</ele>
        <time>2012-03-29T18:22:06Z</time>
      </trkpt>
      <trkpt lat="59.9489884" lon="17.7104693">
        <ele>57.3358</ele>
        <time>2012-03-29T18:22:11Z</time>
      </trkpt>
      <trkpt lat="59.9489882" lon="17.710454">
        <ele>57.8165</ele>
        <time>2012-03-29T18:22:18Z</time>
      </trkpt>
      <trkpt lat="59.9489874" lon="17.7104861">
        <ele>57.8165</ele>
        <time>2012-03-29T18:22:24Z</time>
      </trkpt>
      <trkpt lat="59.948964" lon="17.7105312">
        <ele>57.8165</ele>
        <time>2012-03-29T18:22:29Z</time>
      </trkpt>
      <trkpt lat="59.9489391" lon="17.7105761">
        <ele>58.2971</ele>
        <time>2012-03-29T18:22:33Z</time>
      </trkpt>
      <trkpt lat="59.9489314" lon="17.7105895">
        <ele>58.2971</ele>
        <time>2012-03-29T18:22:34Z</time>
      </trkpt>
      <trkpt lat="59.9489069" lon="17.7106234">
        <ele>58.2971</ele>
        <time>2012-03-29T18:22:37Z</time>
      </trkpt>
      <trkpt lat="59.9488077" lon="17.710579">
        <ele>57.8165</ele>
        <time>2012-03-29T18:22:42Z</time>
      </trkpt>
      <trkpt lat="59.9487999" lon="17.7105994">
        <ele>57.8165</ele>
        <time>2012-03-29T18:22:43Z</time>
      </trkpt>
      <trkpt lat="59.9487989" lon="17.7106328">
        <ele>56.8551</ele>
        <time>2012-03-29T18:22:45Z</time>
      </trkpt>
      <trkpt lat="59.9487665" lon="17.7107344">
        <ele>55.4131</ele>
        <time>2012-03-29T18:22:50Z</time>
      </trkpt>
      <trkpt lat="59.9487531" lon="17.7107558">
        <ele>54.9324</ele>
        <time>2012-03-29T18:22:52Z</time>
      </trkpt>
      <trkpt lat="59.94868" lon="17.7107985">
        <ele>52.5292</ele>
        <time>2012-03-29T18:22:59Z</time>
      </trkpt>
      <trkpt lat="59.9486729" lon="17.7108032">
        <ele>52.0486</ele>
        <time>2012-03-29T18:23:03Z</time>
      </trkpt>
      <trkpt lat="59.9486754" lon="17.7108358">
        <ele>51.5679</ele>
        <time>2012-03-29T18:23:10Z</time>
      </trkpt>
      <trkpt lat="59.9486299" lon="17.7108475">
        <ele>48.684</ele>
        <time>2012-03-29T18:23:16Z</time>
      </trkpt>
      <trkpt lat="59.9485915" lon="17.7109327">
        <ele>46.2806</ele>
        <time>2012-03-29T18:23:21Z</time>
      </trkpt>
      <trkpt lat="59.9485771" lon="17.7109693">
        <ele>45.7999</ele>
        <time>2012-03-29T18:23:23Z</time>
      </trkpt>
      <trkpt lat="59.9485738" lon="17.7110508">
        <ele>46.2806</ele>
        <time>2012-03-29T18:23:26Z</time>
      </trkpt>
      <trkpt lat="59.9485492" lon="17.7111911">
        <ele>46.2806</ele>
        <time>2012-03-29T18:23:32Z</time>
      </trkpt>
      <trkpt lat="59.9485414" lon="17.7112433">
        <ele>46.2806</ele>
        <time>2012-03-29T18:23:34Z</time>
      </trkpt>
      <trkpt lat="59.9485227" lon="17.7113671">
        <ele>46.7612</ele>
        <time>2012-03-29T18:23:39Z</time>
      </trkpt>
      <trkpt lat="59.9485101" lon="17.7113807">
        <ele>47.7225</ele>
        <time>2012-03-29T18:23:44Z</time>
      </trkpt>
      <trkpt lat="59.9484963" lon="17.7113928">
        <ele>50.6066</ele>
        <time>2012-03-29T18:23:51Z</time>
      </trkpt>
      <trkpt lat="59.9484797" lon="17.7114187">
        <ele>49.6453</ele>
        <time>2012-03-29T18:23:55Z</time>
      </trkpt>
      <trkpt lat="59.9484774" lon="17.7114145">
        <ele>50.6066</ele>
        <time>2012-03-29T18:24:02Z</time>
      </trkpt>
      <trkpt lat="59.9484754" lon="17.7114073">
        <ele>53.0098</ele>
        <time>2012-03-29T18:24:08Z</time>
      </trkpt>
      <trkpt lat="59.9484777" lon="17.7114108">
        <ele>53.0098</ele>
        <time>2012-03-29T18:24:09Z</time>
      </trkpt>
      <trkpt lat="59.948491" lon="17.711392">
        <ele>52.5292</ele>
        <time>2012-03-29T18:24:11Z</time>
      </trkpt>
      <trkpt lat="59.9485496" lon="17.7111735">
        <ele>49.6453</ele>
        <time>2012-03-29T18:24:17Z</time>
      </trkpt>
      <trkpt lat="59.9485836" lon="17.7111005">
        <ele>48.684</ele>
        <time>2012-03-29T18:24:19Z</time>
      </trkpt>
      <trkpt lat="59.948618" lon="17.7110113">
        <ele>48.2034</ele>
        <time>2012-03-29T18:24:21Z</time>
      </trkpt>
      <trkpt lat="59.9487112" lon="17.7110032">
        <ele>47.2418</ele>
        <time>2012-03-29T18:24:24Z</time>
      </trkpt>
      <trkpt lat="59.9488017" lon="17.7109534">
        <ele>47.2418</ele>
        <time>2012-03-29T18:24:28Z</time>
      </trkpt>
      <trkpt lat="59.9489019" lon="17.710881">
        <ele>47.7225</ele>
        <time>2012-03-29T18:24:32Z</time>
      </trkpt>
      <trkpt lat="59.9489174" lon="17.7107813">
        <ele>48.2034</ele>
        <time>2012-03-29T18:24:35Z</time>
      </trkpt>
      <trkpt lat="59.9489619" lon="17.7106372">
        <ele>47.7225</ele>
        <time>2012-03-29T18:24:38Z</time>
      </trkpt>
      <trkpt lat="59.9489878" lon="17.7105295">
        <ele>48.684</ele>
        <time>2012-03-29T18:24:40Z</time>
      </trkpt>
      <trkpt lat="59.9490365" lon="17.7103587">
        <ele>50.6066</ele>
        <time>2012-03-29T18:24:45Z</time>
      </trkpt>
      <trkpt lat="59.9490759" lon="17.7102888">
        <ele>51.0872</ele>
        <time>2012-03-29T18:24:48Z</time>
      </trkpt>
      <trkpt lat="59.9491588" lon="17.7102163">
        <ele>51.5679</ele>
        <time>2012-03-29T18:24:53Z</time>
      </trkpt>
      <trkpt lat="59.9491748" lon="17.7101975">
        <ele>51.5679</ele>
        <time>2012-03-29T18:24:54Z</time>
      </trkpt>
      <trkpt lat="59.9492567" lon="17.7100348">
        <ele>51.5679</ele>
        <time>2012-03-29T18:25:00Z</time>
      </trkpt>
      <trkpt lat="59.9492779" lon="17.7099825">
        <ele>51.0872</ele>
        <time>2012-03-29T18:25:02Z</time>
      </trkpt>
      <trkpt lat="59.9493515" lon="17.7098785">
        <ele>50.6066</ele>
        <time>2012-03-29T18:25:07Z</time>
      </trkpt>
      <trkpt lat="59.9494266" lon="17.7097552">
        <ele>49.6453</ele>
        <time>2012-03-29T18:25:11Z</time>
      </trkpt>
      <trkpt lat="59.949488" lon="17.7096004">
        <ele>48.2034</ele>
        <time>2012-03-29T18:25:15Z</time>
      </trkpt>
      <trkpt lat="59.9495266" lon="17.7093895">
        <ele>46.7612</ele>
        <time>2012-03-29T18:25:20Z</time>
      </trkpt>
      <trkpt lat="59.9495877" lon="17.7091937">
        <ele>46.2806</ele>
        <time>2012-03-29T18:25:25Z</time>
      </trkpt>
      <trkpt lat="59.9496559" lon="17.7089913">
        <ele>46.2806</ele>
        <time>2012-03-29T18:25:30Z</time>
      </trkpt>
      <trkpt lat="59.9497085" lon="17.7088253">
        <ele>45.3192</ele>
        <time>2012-03-29T18:25:34Z</time>
      </trkpt>
      <trkpt lat="59.9497481" lon="17.708633">
        <ele>45.3192</ele>
        <time>2012-03-29T18:25:38Z</time>
      </trkpt>
      <trkpt lat="59.949759" lon="17.708589">
        <ele>44.8386</ele>
        <time>2012-03-29T18:25:39Z</time>
      </trkpt>
      <trkpt lat="59.9498242" lon="17.7083872">
        <ele>44.358</ele>
        <time>2012-03-29T18:25:44Z</time>
      </trkpt>
      <trkpt lat="59.9498853" lon="17.7082271">
        <ele>42.916</ele>
        <time>2012-03-29T18:25:48Z</time>
      </trkpt>
      <trkpt lat="59.9499187" lon="17.7080354">
        <ele>42.4354</ele>
        <time>2012-03-29T18:25:52Z</time>
      </trkpt>
      <trkpt lat="59.9499761" lon="17.7078715">
        <ele>40.9934</ele>
        <time>2012-03-29T18:25:56Z</time>
      </trkpt>
      <trkpt lat="59.9500258" lon="17.7076437">
        <ele>39.5513</ele>
        <time>2012-03-29T18:26:01Z</time>
      </trkpt>
      <trkpt lat="59.9500664" lon="17.7075245">
        <ele>39.5513</ele>
        <time>2012-03-29T18:26:04Z</time>
      </trkpt>
      <trkpt lat="59.950197" lon="17.7073008">
        <ele>40.5128</ele>
        <time>2012-03-29T18:26:11Z</time>
      </trkpt>
      <trkpt lat="59.9502982" lon="17.7073309">
        <ele>41.474</ele>
        <time>2012-03-29T18:26:15Z</time>
      </trkpt>
      <trkpt lat="59.9503911" lon="17.7075007">
        <ele>42.916</ele>
        <time>2012-03-29T18:26:20Z</time>
      </trkpt>
      <trkpt lat="59.9503984" lon="17.7075381">
        <ele>42.916</ele>
        <time>2012-03-29T18:26:21Z</time>
      </trkpt>
      <trkpt lat="59.9503795" lon="17.7077018">
        <ele>42.916</ele>
        <time>2012-03-29T18:26:25Z</time>
      </trkpt>
      <trkpt lat="59.9502813" lon="17.707771">
        <ele>41.9547</ele>
        <time>2012-03-29T18:26:30Z</time>
      </trkpt>
      <trkpt lat="59.9502195" lon="17.7077842">
        <ele>42.916</ele>
        <time>2012-03-29T18:26:34Z</time>
      </trkpt>
      <trkpt lat="59.9501249" lon="17.7077726">
        <ele>43.8773</ele>
        <time>2012-03-29T18:26:39Z</time>
      </trkpt>
      <trkpt lat="59.950103" lon="17.7077805">
        <ele>43.8773</ele>
        <time>2012-03-29T18:26:40Z</time>
      </trkpt>
      <trkpt lat="59.9500379" lon="17.7077992">
        <ele>42.916</ele>
        <time>2012-03-29T18:26:44Z</time>
      </trkpt>
      <trkpt lat="59.9500229" lon="17.7078004">
        <ele>43.3966</ele>
        <time>2012-03-29T18:26:45Z</time>
      </trkpt>
      <trkpt lat="59.9499741" lon="17.7078405">
        <ele>44.8386</ele>
        <time>2012-03-29T18:26:49Z</time>
      </trkpt>
      <trkpt lat="59.9499218" lon="17.7079168">
        <ele>47.7225</ele>
        <time>2012-03-29T18:26:54Z</time>
      </trkpt>
      <trkpt lat="59.9499119" lon="17.7079302">
        <ele>48.684</ele>
        <time>2012-03-29T18:26:55Z</time>
      </trkpt>
      <trkpt lat="59.9498932" lon="17.708027">
        <ele>49.6453</ele>
        <time>2012-03-29T18:27:00Z</time>
      </trkpt>
      <trkpt lat="59.9498813" lon="17.7080821">
        <ele>50.126</ele>
        <time>2012-03-29T18:27:03Z</time>
      </trkpt>
      <trkpt lat="59.9498712" lon="17.7081275">
        <ele>51.0872</ele>
        <time>2012-03-29T18:27:05Z</time>
      </trkpt>
      <trkpt lat="59.9498683" lon="17.7082716">
        <ele>53.9712</ele>
        <time>2012-03-29T18:27:09Z</time>
      </trkpt>
      <trkpt lat="59.9498455" lon="17.708553">
        <ele>56.8551</ele>
        <time>2012-03-29T18:27:14Z</time>
      </trkpt>
      <trkpt lat="59.9497959" lon="17.7086959">
        <ele>59.7391</ele>
        <time>2012-03-29T18:27:18Z</time>
      </trkpt>
      <trkpt lat="59.9497424" lon="17.7088901">
        <ele>62.6229</ele>
        <time>2012-03-29T18:27:23Z</time>
      </trkpt>
      <trkpt lat="59.9497227" lon="17.7090705">
        <ele>65.5071</ele>
        <time>2012-03-29T18:27:27Z</time>
      </trkpt>
      <trkpt lat="59.9497047" lon="17.7092133">
        <ele>67.4297</ele>
        <time>2012-03-29T18:27:31Z</time>
      </trkpt>
      <trkpt lat="59.9497131" lon="17.7092817">
        <ele>68.3909</ele>
        <time>2012-03-29T18:27:33Z</time>
      </trkpt>
      <trkpt lat="59.9497642" lon="17.7094308">
        <ele>69.3523</ele>
        <time>2012-03-29T18:27:38Z</time>
      </trkpt>
      <trkpt lat="59.9498134" lon="17.7095309">
        <ele>69.8329</ele>
        <time>2012-03-29T18:27:41Z</time>
      </trkpt>
      <trkpt lat="59.949829" lon="17.7095522">
        <ele>70.3135</ele>
        <time>2012-03-29T18:27:42Z</time>
      </trkpt>
      <trkpt lat="59.9498695" lon="17.7095532">
        <ele>69.8329</ele>
        <time>2012-03-29T18:27:46Z</time>
      </trkpt>
      <trkpt lat="59.9498797" lon="17.7095572">
        <ele>68.3909</ele>
        <time>2012-03-29T18:27:50Z</time>
      </trkpt>
      <trkpt lat="59.9498848" lon="17.7094966">
        <ele>66.4683</ele>
        <time>2012-03-29T18:27:56Z</time>
      </trkpt>
      <trkpt lat="59.9499191" lon="17.7094542">
        <ele>64.5457</ele>
        <time>2012-03-29T18:27:59Z</time>
      </trkpt>
      <trkpt lat="59.9499281" lon="17.7093531">
        <ele>63.5844</ele>
        <time>2012-03-29T18:28:04Z</time>
      </trkpt>
      <trkpt lat="59.9499144" lon="17.7093235">
        <ele>63.5844</ele>
        <time>2012-03-29T18:28:07Z</time>
      </trkpt>
      <trkpt lat="59.9498955" lon="17.7092502">
        <ele>63.1036</ele>
        <time>2012-03-29T18:28:11Z</time>
      </trkpt>
      <trkpt lat="59.9498703" lon="17.7091284">
        <ele>62.1423</ele>
        <time>2012-03-29T18:28:16Z</time>
      </trkpt>
      <trkpt lat="59.9498813" lon="17.7090602">
        <ele>61.6617</ele>
        <time>2012-03-29T18:28:19Z</time>
      </trkpt>
      <trkpt lat="59.9499307" lon="17.7089994">
        <ele>61.6617</ele>
        <time>2012-03-29T18:28:24Z</time>
      </trkpt>
      <trkpt lat="59.949942" lon="17.7089015">
        <ele>60.2197</ele>
        <time>2012-03-29T18:28:28Z</time>
      </trkpt>
      <trkpt lat="59.949959" lon="17.7088141">
        <ele>58.7777</ele>
        <time>2012-03-29T18:28:32Z</time>
      </trkpt>
      <trkpt lat="59.9499695" lon="17.7087872">
        <ele>58.7777</ele>
        <time>2012-03-29T18:28:33Z</time>
      </trkpt>
      <trkpt lat="59.9500202" lon="17.7086674">
        <ele>57.3358</ele>
        <time>2012-03-29T18:28:39Z</time>
      </trkpt>
      <trkpt lat="59.95003" lon="17.7086185">
        <ele>56.3745</ele>
        <time>2012-03-29T18:28:41Z</time>
      </trkpt>
      <trkpt lat="59.9500741" lon="17.7084914">
        <ele>54.4518</ele>
        <time>2012-03-29T18:28:46Z</time>
      </trkpt>
      <trkpt lat="59.9501" lon="17.7083986">
        <ele>51.0872</ele>
        <time>2012-03-29T18:28:50Z</time>
      </trkpt>
      <trkpt lat="59.9501136" lon="17.7082395">
        <ele>47.2418</ele>
        <time>2012-03-29T18:28:56Z</time>
      </trkpt>
      <trkpt lat="59.9501455" lon="17.7081007">
        <ele>45.7999</ele>
        <time>2012-03-29T18:29:02Z</time>
      </trkpt>
      <trkpt lat="59.9501796" lon="17.7080228">
        <ele>43.3966</ele>
        <time>2012-03-29T18:29:07Z</time>
      </trkpt>
      <trkpt lat="59.9502387" lon="17.7080111">
        <ele>42.916</ele>
        <time>2012-03-29T18:29:12Z</time>
      </trkpt>
      <trkpt lat="59.9503514" lon="17.708055">
        <ele>41.474</ele>
        <time>2012-03-29T18:29:19Z</time>
      </trkpt>
      <trkpt lat="59.950399" lon="17.7081064">
        <ele>38.5901</ele>
        <time>2012-03-29T18:29:23Z</time>
      </trkpt>
      <trkpt lat="59.9504585" lon="17.708156">
        <ele>36.1868</ele>
        <time>2012-03-29T18:29:28Z</time>
      </trkpt>
      <trkpt lat="59.9504946" lon="17.7082059">
        <ele>37.1481</ele>
        <time>2012-03-29T18:29:31Z</time>
      </trkpt>
      <trkpt lat="59.9505118" lon="17.7082566">
        <ele>38.1094</ele>
        <time>2012-03-29T18:29:34Z</time>
      </trkpt>
      <trkpt lat="59.9505218" lon="17.7082875">
        <ele>39.0707</ele>
        <time>2012-03-29T18:29:36Z</time>
      </trkpt>
      <trkpt lat="59.9505723" lon="17.7083355">
        <ele>40.0321</ele>
        <time>2012-03-29T18:29:41Z</time>
      </trkpt>
      <trkpt lat="59.9505974" lon="17.7083841">
        <ele>39.5513</ele>
        <time>2012-03-29T18:29:45Z</time>
      </trkpt>
      <trkpt lat="59.9506372" lon="17.7083923">
        <ele>39.5513</ele>
        <time>2012-03-29T18:29:50Z</time>
      </trkpt>
      <trkpt lat="59.9506956" lon="17.7084125">
        <ele>39.0707</ele>
        <time>2012-03-29T18:29:56Z</time>
      </trkpt>
      <trkpt lat="59.9507189" lon="17.7084238">
        <ele>38.5901</ele>
        <time>2012-03-29T18:29:58Z</time>
      </trkpt>
      <trkpt lat="59.9507787" lon="17.7084398">
        <ele>39.0707</ele>
        <time>2012-03-29T18:30:03Z</time>
      </trkpt>
      <trkpt lat="59.9508013" lon="17.7084426">
        <ele>40.0321</ele>
        <time>2012-03-29T18:30:05Z</time>
      </trkpt>
      <trkpt lat="59.9508147" lon="17.7084949">
        <ele>40.9934</ele>
        <time>2012-03-29T18:30:11Z</time>
      </trkpt>
      <trkpt lat="59.9508257" lon="17.7085278">
        <ele>44.358</ele>
        <time>2012-03-29T18:30:20Z</time>
      </trkpt>
      <trkpt lat="59.9508416" lon="17.7085664">
        <ele>46.2806</ele>
        <time>2012-03-29T18:30:34Z</time>
      </trkpt>
      <trkpt lat="59.9508449" lon="17.7085537">
        <ele>49.1646</ele>
        <time>2012-03-29T18:30:50Z</time>
      </trkpt>
      <trkpt lat="59.9508378" lon="17.7085494">
        <ele>48.684</ele>
        <time>2012-03-29T18:30:51Z</time>
      </trkpt>
      <trkpt lat="59.9507675" lon="17.7085202">
        <ele>48.684</ele>
        <time>2012-03-29T18:30:55Z</time>
      </trkpt>
      <trkpt lat="59.9506499" lon="17.7084333">
        <ele>47.2418</ele>
        <time>2012-03-29T18:31:01Z</time>
      </trkpt>
      <trkpt lat="59.9505585" lon="17.7083039">
        <ele>47.2418</ele>
        <time>2012-03-29T18:31:06Z</time>
      </trkpt>
      <trkpt lat="59.9505119" lon="17.7082223">
        <ele>47.7225</ele>
        <time>2012-03-29T18:31:09Z</time>
      </trkpt>
      <trkpt lat="59.9504409" lon="17.7081198">
        <ele>48.2034</ele>
        <time>2012-03-29T18:31:13Z</time>
      </trkpt>
      <trkpt lat="59.9503552" lon="17.7079878">
        <ele>49.1646</ele>
        <time>2012-03-29T18:31:19Z</time>
      </trkpt>
      <trkpt lat="59.9502481" lon="17.707886">
        <ele>50.126</ele>
        <time>2012-03-29T18:31:26Z</time>
      </trkpt>
      <trkpt lat="59.9501839" lon="17.7078814">
        <ele>49.6453</ele>
        <time>2012-03-29T18:31:29Z</time>
      </trkpt>
      <trkpt lat="59.9501291" lon="17.7079865">
        <ele>52.5292</ele>
        <time>2012-03-29T18:31:33Z</time>
      </trkpt>
      <trkpt lat="59.9500924" lon="17.7080906">
        <ele>54.4518</ele>
        <time>2012-03-29T18:31:37Z</time>
      </trkpt>
      <trkpt lat="59.9500452" lon="17.7082665">
        <ele>55.8938</ele>
        <time>2012-03-29T18:31:42Z</time>
      </trkpt>
      <trkpt lat="59.9500237" lon="17.708397">
        <ele>55.4131</ele>
        <time>2012-03-29T18:31:45Z</time>
      </trkpt>
      <trkpt lat="59.9500136" lon="17.7084323">
        <ele>54.9324</ele>
        <time>2012-03-29T18:31:46Z</time>
      </trkpt>
      <trkpt lat="59.950002" lon="17.7085027">
        <ele>55.4131</ele>
        <time>2012-03-29T18:31:48Z</time>
      </trkpt>
      <trkpt lat="59.9499317" lon="17.7087555">
        <ele>55.8938</ele>
        <time>2012-03-29T18:31:55Z</time>
      </trkpt>
      <trkpt lat="59.9499007" lon="17.7089051">
        <ele>57.8165</ele>
        <time>2012-03-29T18:31:59Z</time>
      </trkpt>
      <trkpt lat="59.9498222" lon="17.7090719">
        <ele>60.2197</ele>
        <time>2012-03-29T18:32:04Z</time>
      </trkpt>
      <trkpt lat="59.9497857" lon="17.7091698">
        <ele>60.7003</ele>
        <time>2012-03-29T18:32:07Z</time>
      </trkpt>
      <trkpt lat="59.9497821" lon="17.7091946">
        <ele>61.181</ele>
        <time>2012-03-29T18:32:08Z</time>
      </trkpt>
      <trkpt lat="59.9497988" lon="17.7092863">
        <ele>62.1423</ele>
        <time>2012-03-29T18:32:13Z</time>
      </trkpt>
      <trkpt lat="59.9498318" lon="17.7093226">
        <ele>65.0264</ele>
        <time>2012-03-29T18:32:21Z</time>
      </trkpt>
      <trkpt lat="59.9498597" lon="17.7092738">
        <ele>64.5457</ele>
        <time>2012-03-29T18:32:25Z</time>
      </trkpt>
      <trkpt lat="59.9498715" lon="17.7092784">
        <ele>65.5071</ele>
        <time>2012-03-29T18:32:29Z</time>
      </trkpt>
      <trkpt lat="59.9498844" lon="17.7093128">
        <ele>65.5071</ele>
        <time>2012-03-29T18:32:38Z</time>
      </trkpt>
      <trkpt lat="59.9498807" lon="17.7093118">
        <ele>65.5071</ele>
        <time>2012-03-29T18:32:46Z</time>
      </trkpt>
      <trkpt lat="59.9498846" lon="17.7093128">
        <ele>65.9877</ele>
        <time>2012-03-29T18:32:59Z</time>
      </trkpt>
      <trkpt lat="59.9498768" lon="17.7093166">
        <ele>65.5071</ele>
        <time>2012-03-29T18:33:03Z</time>
      </trkpt>
      <trkpt lat="59.9498922" lon="17.7092562">
        <ele>65.9877</ele>
        <time>2012-03-29T18:33:10Z</time>
      </trkpt>
      <trkpt lat="59.9499042" lon="17.7092025">
        <ele>65.5071</ele>
        <time>2012-03-29T18:33:13Z</time>
      </trkpt>
      <trkpt lat="59.9499071" lon="17.7091776">
        <ele>65.9877</ele>
        <time>2012-03-29T18:33:14Z</time>
      </trkpt>
      <trkpt lat="59.9499307" lon="17.7091306">
        <ele>65.0264</ele>
        <time>2012-03-29T18:33:18Z</time>
      </trkpt>
      <trkpt lat="59.9499458" lon="17.7090857">
        <ele>65.9877</ele>
        <time>2012-03-29T18:33:23Z</time>
      </trkpt>
      <trkpt lat="59.9499432" lon="17.7090635">
        <ele>66.4683</ele>
        <time>2012-03-29T18:33:26Z</time>
      </trkpt>
      <trkpt lat="59.9499812" lon="17.7089408">
        <ele>64.5457</ele>
        <time>2012-03-29T18:33:32Z</time>
      </trkpt>
      <trkpt lat="59.9500083" lon="17.7088685">
        <ele>63.5844</ele>
        <time>2012-03-29T18:33:36Z</time>
      </trkpt>
      <trkpt lat="59.9500471" lon="17.7086384">
        <ele>61.6617</ele>
        <time>2012-03-29T18:33:45Z</time>
      </trkpt>
      <trkpt lat="59.9500718" lon="17.7084833">
        <ele>60.2197</ele>
        <time>2012-03-29T18:33:51Z</time>
      </trkpt>
      <trkpt lat="59.9501144" lon="17.7083559">
        <ele>57.8165</ele>
        <time>2012-03-29T18:33:57Z</time>
      </trkpt>
      <trkpt lat="59.9501679" lon="17.7083194">
        <ele>55.8938</ele>
        <time>2012-03-29T18:34:00Z</time>
      </trkpt>
      <trkpt lat="59.9502278" lon="17.7082897">
        <ele>54.4518</ele>
        <time>2012-03-29T18:34:03Z</time>
      </trkpt>
      <trkpt lat="59.9502122" lon="17.7082199">
        <ele>50.6066</ele>
        <time>2012-03-29T18:34:06Z</time>
      </trkpt>
      <trkpt lat="59.9502174" lon="17.7081613">
        <ele>48.2034</ele>
        <time>2012-03-29T18:34:09Z</time>
      </trkpt>
      <trkpt lat="59.9502398" lon="17.7081162">
        <ele>46.7612</ele>
        <time>2012-03-29T18:34:13Z</time>
      </trkpt>
      <trkpt lat="59.9502756" lon="17.7081023">
        <ele>44.358</ele>
        <time>2012-03-29T18:34:18Z</time>
      </trkpt>
      <trkpt lat="59.9503163" lon="17.7081312">
        <ele>43.3966</ele>
        <time>2012-03-29T18:34:21Z</time>
      </trkpt>
      <trkpt lat="59.9503689" lon="17.7081534">
        <ele>41.474</ele>
        <time>2012-03-29T18:34:26Z</time>
      </trkpt>
      <trkpt lat="59.9504059" lon="17.708212">
        <ele>38.1094</ele>
        <time>2012-03-29T18:34:32Z</time>
      </trkpt>
      <trkpt lat="59.9504305" lon="17.7082737">
        <ele>36.6675</ele>
        <time>2012-03-29T18:34:35Z</time>
      </trkpt>
      <trkpt lat="59.9504708" lon="17.7083406">
        <ele>34.7449</ele>
        <time>2012-03-29T18:34:39Z</time>
      </trkpt>
      <trkpt lat="59.9505481" lon="17.7084436">
        <ele>32.3416</ele>
        <time>2012-03-29T18:34:45Z</time>
      </trkpt>
      <trkpt lat="59.9506123" lon="17.7084665">
        <ele>33.3029</ele>
        <time>2012-03-29T18:34:49Z</time>
      </trkpt>
      <trkpt lat="59.9506539" lon="17.7085036">
        <ele>34.7449</ele>
        <time>2012-03-29T18:34:52Z</time>
      </trkpt>
      <trkpt lat="59.9506842" lon="17.708516">
        <ele>35.7061</ele>
        <time>2012-03-29T18:34:55Z</time>
      </trkpt>
      <trkpt lat="59.9507036" lon="17.708539">
        <ele>37.1481</ele>
        <time>2012-03-29T18:35:00Z</time>
      </trkpt>
      <trkpt lat="59.9506982" lon="17.7085317">
        <ele>39.0707</ele>
        <time>2012-03-29T18:35:06Z</time>
      </trkpt>
      <trkpt lat="59.9506929" lon="17.7085326">
        <ele>40.0321</ele>
        <time>2012-03-29T18:35:12Z</time>
      </trkpt>
      <trkpt lat="59.9507357" lon="17.7085341">
        <ele>40.0321</ele>
        <time>2012-03-29T18:35:34Z</time>
      </trkpt>
      <trkpt lat="59.9507284" lon="17.7085356">
        <ele>40.9934</ele>
        <time>2012-03-29T18:35:36Z</time>
      </trkpt>
      <trkpt lat="59.9507158" lon="17.7085354">
        <ele>40.5128</ele>
        <time>2012-03-29T18:35:37Z</time>
      </trkpt>
      <trkpt lat="59.9506116" lon="17.7084799">
        <ele>42.4354</ele>
        <time>2012-03-29T18:35:42Z</time>
      </trkpt>
      <trkpt lat="59.9504936" lon="17.7083473">
        <ele>43.8773</ele>
        <time>2012-03-29T18:35:47Z</time>
      </trkpt>
      <trkpt lat="59.9504383" lon="17.7082813">
        <ele>46.2806</ele>
        <time>2012-03-29T18:35:50Z</time>
      </trkpt>
      <trkpt lat="59.9503466" lon="17.7081598">
        <ele>48.684</ele>
        <time>2012-03-29T18:35:56Z</time>
      </trkpt>
      <trkpt lat="59.9503139" lon="17.7081212">
        <ele>50.126</ele>
        <time>2012-03-29T18:35:58Z</time>
      </trkpt>
      <trkpt lat="59.9502062" lon="17.7080832">
        <ele>51.0872</ele>
        <time>2012-03-29T18:36:03Z</time>
      </trkpt>
      <trkpt lat="59.9501426" lon="17.7081122">
        <ele>51.5679</ele>
        <time>2012-03-29T18:36:06Z</time>
      </trkpt>
      <trkpt lat="59.9500796" lon="17.7082285">
        <ele>52.5292</ele>
        <time>2012-03-29T18:36:11Z</time>
      </trkpt>
      <trkpt lat="59.9500431" lon="17.708311">
        <ele>53.9712</ele>
        <time>2012-03-29T18:36:14Z</time>
      </trkpt>
      <trkpt lat="59.9500578" lon="17.7084427">
        <ele>58.2971</ele>
        <time>2012-03-29T18:36:18Z</time>
      </trkpt>
      <trkpt lat="59.9500933" lon="17.7085856">
        <ele>62.6229</ele>
        <time>2012-03-29T18:36:22Z</time>
      </trkpt>
      <trkpt lat="59.9500828" lon="17.7087513">
        <ele>64.5457</ele>
        <time>2012-03-29T18:36:26Z</time>
      </trkpt>
      <trkpt lat="59.9500537" lon="17.7088181">
        <ele>64.5457</ele>
        <time>2012-03-29T18:36:28Z</time>
      </trkpt>
      <trkpt lat="59.9500452" lon="17.7088444">
        <ele>64.5457</ele>
        <time>2012-03-29T18:36:29Z</time>
      </trkpt>
      <trkpt lat="59.9500402" lon="17.7089221">
        <ele>64.5457</ele>
        <time>2012-03-29T18:36:33Z</time>
      </trkpt>
      <trkpt lat="59.9500787" lon="17.7089969">
        <ele>65.9877</ele>
        <time>2012-03-29T18:36:39Z</time>
      </trkpt>
      <trkpt lat="59.9501062" lon="17.7090258">
        <ele>66.4683</ele>
        <time>2012-03-29T18:36:46Z</time>
      </trkpt>
      <trkpt lat="59.9501314" lon="17.7090363">
        <ele>65.9877</ele>
        <time>2012-03-29T18:36:52Z</time>
      </trkpt>
      <trkpt lat="59.9501368" lon="17.7090388">
        <ele>65.5071</ele>
        <time>2012-03-29T18:36:56Z</time>
      </trkpt>
      <trkpt lat="59.9501528" lon="17.7091189">
        <ele>64.0651</ele>
        <time>2012-03-29T18:37:02Z</time>
      </trkpt>
      <trkpt lat="59.9501896" lon="17.7092117">
        <ele>62.6229</ele>
        <time>2012-03-29T18:37:08Z</time>
      </trkpt>
      <trkpt lat="59.9502622" lon="17.709307">
        <ele>61.6617</ele>
        <time>2012-03-29T18:37:14Z</time>
      </trkpt>
      <trkpt lat="59.9502804" lon="17.7093381">
        <ele>60.2197</ele>
        <time>2012-03-29T18:37:16Z</time>
      </trkpt>
      <trkpt lat="59.9503166" lon="17.7093993">
        <ele>56.3745</ele>
        <time>2012-03-29T18:37:21Z</time>
      </trkpt>
      <trkpt lat="59.9503578" lon="17.7094941">
        <ele>53.9712</ele>
        <time>2012-03-29T18:37:27Z</time>
      </trkpt>
      <trkpt lat="59.9504004" lon="17.7095497">
        <ele>52.0486</ele>
        <time>2012-03-29T18:37:32Z</time>
      </trkpt>
      <trkpt lat="59.9504516" lon="17.7096164">
        <ele>47.2418</ele>
        <time>2012-03-29T18:37:38Z</time>
      </trkpt>
      <trkpt lat="59.9505061" lon="17.7096397">
        <ele>41.9547</ele>
        <time>2012-03-29T18:37:45Z</time>
      </trkpt>
      <trkpt lat="59.9505506" lon="17.7096572">
        <ele>36.1868</ele>
        <time>2012-03-29T18:37:52Z</time>
      </trkpt>
      <trkpt lat="59.9505992" lon="17.7096778">
        <ele>34.7449</ele>
        <time>2012-03-29T18:37:58Z</time>
      </trkpt>
      <trkpt lat="59.9506569" lon="17.709709">
        <ele>36.1868</ele>
        <time>2012-03-29T18:38:03Z</time>
      </trkpt>
      <trkpt lat="59.9506774" lon="17.7096999">
        <ele>37.1481</ele>
        <time>2012-03-29T18:38:05Z</time>
      </trkpt>
      <trkpt lat="59.9507336" lon="17.7097827">
        <ele>39.0707</ele>
        <time>2012-03-29T18:38:11Z</time>
      </trkpt>
      <trkpt lat="59.9507124" lon="17.7098044">
        <ele>42.4354</ele>
        <time>2012-03-29T18:38:25Z</time>
      </trkpt>
      <trkpt lat="59.9506591" lon="17.7097561">
        <ele>41.9547</ele>
        <time>2012-03-29T18:38:32Z</time>
      </trkpt>
      <trkpt lat="59.9506629" lon="17.7097506">
        <ele>40.5128</ele>
        <time>2012-03-29T18:38:41Z</time>
      </trkpt>
      <trkpt lat="59.9506609" lon="17.7097807">
        <ele>42.916</ele>
        <time>2012-03-29T18:38:48Z</time>
      </trkpt>
      <trkpt lat="59.9506641" lon="17.7097795">
        <ele>46.2806</ele>
        <time>2012-03-29T18:38:58Z</time>
      </trkpt>
      <trkpt lat="59.95066" lon="17.7097657">
        <ele>44.358</ele>
        <time>2012-03-29T18:39:06Z</time>
      </trkpt>
      <trkpt lat="59.9506764" lon="17.7097583">
        <ele>45.3192</ele>
        <time>2012-03-29T18:39:14Z</time>
      </trkpt>
      <trkpt lat="59.9507082" lon="17.7097141">
        <ele>51.0872</ele>
        <time>2012-03-29T18:39:23Z</time>
      </trkpt>
      <trkpt lat="59.9507274" lon="17.7097288">
        <ele>53.9712</ele>
        <time>2012-03-29T18:39:29Z</time>
      </trkpt>
      <trkpt lat="59.9507548" lon="17.7097329">
        <ele>53.0098</ele>
        <time>2012-03-29T18:39:34Z</time>
      </trkpt>
      <trkpt lat="59.950764" lon="17.7097195">
        <ele>50.6066</ele>
        <time>2012-03-29T18:39:40Z</time>
      </trkpt>
      <trkpt lat="59.9507839" lon="17.7097386">
        <ele>51.0872</ele>
        <time>2012-03-29T18:39:44Z</time>
      </trkpt>
      <trkpt lat="59.950775" lon="17.7097738">
        <ele>50.126</ele>
        <time>2012-03-29T18:39:53Z</time>
      </trkpt>
      <trkpt lat="59.950775" lon="17.7097647">
        <ele>50.126</ele>
        <time>2012-03-29T18:40:03Z</time>
      </trkpt>
      <trkpt lat="59.9507776" lon="17.7097665">
        <ele>48.684</ele>
        <time>2012-03-29T18:40:16Z</time>
      </trkpt>
      <trkpt lat="59.9508145" lon="17.7098175">
        <ele>49.1646</ele>
        <time>2012-03-29T18:40:32Z</time>
      </trkpt>
      <trkpt lat="59.9508599" lon="17.7098521">
        <ele>49.1646</ele>
        <time>2012-03-29T18:40:37Z</time>
      </trkpt>
      <trkpt lat="59.9509147" lon="17.7099074">
        <ele>50.126</ele>
        <time>2012-03-29T18:40:41Z</time>
      </trkpt>
      <trkpt lat="59.950932" lon="17.7099161">
        <ele>50.126</ele>
        <time>2012-03-29T18:40:43Z</time>
      </trkpt>
      <trkpt lat="59.9509734" lon="17.7099334">
        <ele>50.6066</ele>
        <time>2012-03-29T18:40:47Z</time>
      </trkpt>
      <trkpt lat="59.9510396" lon="17.7099498">
        <ele>51.0872</ele>
        <time>2012-03-29T18:40:52Z</time>
      </trkpt>
      <trkpt lat="59.9511272" lon="17.70995">
        <ele>47.2418</ele>
        <time>2012-03-29T18:40:59Z</time>
      </trkpt>
      <trkpt lat="59.9511847" lon="17.7099147">
        <ele>43.3966</ele>
        <time>2012-03-29T18:41:05Z</time>
      </trkpt>
      <trkpt lat="59.9512303" lon="17.7099199">
        <ele>40.9934</ele>
        <time>2012-03-29T18:41:09Z</time>
      </trkpt>
      <trkpt lat="59.9513084" lon="17.7098826">
        <ele>35.7061</ele>
        <time>2012-03-29T18:41:16Z</time>
      </trkpt>
      <trkpt lat="59.9513536" lon="17.7098617">
        <ele>35.2255</ele>
        <time>2012-03-29T18:41:19Z</time>
      </trkpt>
      <trkpt lat="59.9514277" lon="17.7098287">
        <ele>32.8223</ele>
        <time>2012-03-29T18:41:25Z</time>
      </trkpt>
      <trkpt lat="59.9515414" lon="17.7097646">
        <ele>33.7834</ele>
        <time>2012-03-29T18:41:32Z</time>
      </trkpt>
      <trkpt lat="59.951596" lon="17.7097801">
        <ele>36.6675</ele>
        <time>2012-03-29T18:41:35Z</time>
      </trkpt>
      <trkpt lat="59.9516923" lon="17.70975">
        <ele>38.5901</ele>
        <time>2012-03-29T18:41:42Z</time>
      </trkpt>
      <trkpt lat="59.9517996" lon="17.7096595">
        <ele>38.1094</ele>
        <time>2012-03-29T18:41:49Z</time>
      </trkpt>
      <trkpt lat="59.9518343" lon="17.7096091">
        <ele>36.6675</ele>
        <time>2012-03-29T18:41:53Z</time>
      </trkpt>
      <trkpt lat="59.9519437" lon="17.7096229">
        <ele>37.1481</ele>
        <time>2012-03-29T18:42:01Z</time>
      </trkpt>
      <trkpt lat="59.9519939" lon="17.7096562">
        <ele>36.6675</ele>
        <time>2012-03-29T18:42:05Z</time>
      </trkpt>
      <trkpt lat="59.9520923" lon="17.7096987">
        <ele>34.2642</ele>
        <time>2012-03-29T18:42:13Z</time>
      </trkpt>
      <trkpt lat="59.9521843" lon="17.7097345">
        <ele>33.3029</ele>
        <time>2012-03-29T18:42:20Z</time>
      </trkpt>
      <trkpt lat="59.9522591" lon="17.7097709">
        <ele>33.7834</ele>
        <time>2012-03-29T18:42:25Z</time>
      </trkpt>
      <trkpt lat="59.9523554" lon="17.7098597">
        <ele>32.3416</ele>
        <time>2012-03-29T18:42:33Z</time>
      </trkpt>
      <trkpt lat="59.9524895" lon="17.7099515">
        <ele>38.5901</ele>
        <time>2012-03-29T18:42:40Z</time>
      </trkpt>
      <trkpt lat="59.9525875" lon="17.7100472">
        <ele>39.5513</ele>
        <time>2012-03-29T18:42:47Z</time>
      </trkpt>
      <trkpt lat="59.9526541" lon="17.7101205">
        <ele>40.5128</ele>
        <time>2012-03-29T18:42:52Z</time>
      </trkpt>
      <trkpt lat="59.9527275" lon="17.7101888">
        <ele>41.474</ele>
        <time>2012-03-29T18:42:57Z</time>
      </trkpt>
      <trkpt lat="59.9527884" lon="17.7102431">
        <ele>41.474</ele>
        <time>2012-03-29T18:43:01Z</time>
      </trkpt>
      <trkpt lat="59.9527983" lon="17.7102622">
        <ele>41.474</ele>
        <time>2012-03-29T18:43:02Z</time>
      </trkpt>
      <trkpt lat="59.9528662" lon="17.7103561">
        <ele>41.474</ele>
        <time>2012-03-29T18:43:07Z</time>
      </trkpt>
      <trkpt lat="59.9528807" lon="17.7103747">
        <ele>41.474</ele>
        <time>2012-03-29T18:43:08Z</time>
      </trkpt>
      <trkpt lat="59.9529683" lon="17.7105415">
        <ele>40.9934</ele>
        <time>2012-03-29T18:43:15Z</time>
      </trkpt>
      <trkpt lat="59.9530278" lon="17.7106944">
        <ele>40.5128</ele>
        <time>2012-03-29T18:43:21Z</time>
      </trkpt>
      <trkpt lat="59.9530556" lon="17.7108342">
        <ele>40.9934</ele>
        <time>2012-03-29T18:43:26Z</time>
      </trkpt>
      <trkpt lat="59.9530686" lon="17.7108823">
        <ele>40.9934</ele>
        <time>2012-03-29T18:43:28Z</time>
      </trkpt>
      <trkpt lat="59.9530987" lon="17.7109925">
        <ele>41.474</ele>
        <time>2012-03-29T18:43:33Z</time>
      </trkpt>
      <trkpt lat="59.9531666" lon="17.7111207">
        <ele>43.3966</ele>
        <time>2012-03-29T18:43:39Z</time>
      </trkpt>
      <trkpt lat="59.9532525" lon="17.7112677">
        <ele>45.3192</ele>
        <time>2012-03-29T18:43:46Z</time>
      </trkpt>
      <trkpt lat="59.9533263" lon="17.7113864">
        <ele>44.8386</ele>
        <time>2012-03-29T18:43:52Z</time>
      </trkpt>
      <trkpt lat="59.9533876" lon="17.7114952">
        <ele>44.8386</ele>
        <time>2012-03-29T18:43:58Z</time>
      </trkpt>
      <trkpt lat="59.9534692" lon="17.7116128">
        <ele>46.7612</ele>
        <time>2012-03-29T18:44:05Z</time>
      </trkpt>
      <trkpt lat="59.9535257" lon="17.7117038">
        <ele>46.7612</ele>
        <time>2012-03-29T18:44:10Z</time>
      </trkpt>
      <trkpt lat="59.9535971" lon="17.7118366">
        <ele>45.7999</ele>
        <time>2012-03-29T18:44:17Z</time>
      </trkpt>
      <trkpt lat="59.9537053" lon="17.7119664">
        <ele>47.2418</ele>
        <time>2012-03-29T18:44:25Z</time>
      </trkpt>
      <trkpt lat="59.9537898" lon="17.7121154">
        <ele>47.7225</ele>
        <time>2012-03-29T18:44:33Z</time>
      </trkpt>
      <trkpt lat="59.9538863" lon="17.7122852">
        <ele>49.1646</ele>
        <time>2012-03-29T18:44:42Z</time>
      </trkpt>
      <trkpt lat="59.9539462" lon="17.7124362">
        <ele>48.2034</ele>
        <time>2012-03-29T18:44:48Z</time>
      </trkpt>
      <trkpt lat="59.9540021" lon="17.7125881">
        <ele>47.2418</ele>
        <time>2012-03-29T18:44:55Z</time>
      </trkpt>
      <trkpt lat="59.9540186" lon="17.7126689">
        <ele>46.2806</ele>
        <time>2012-03-29T18:44:58Z</time>
      </trkpt>
      <trkpt lat="59.9540256" lon="17.7127399">
        <ele>46.2806</ele>
        <time>2012-03-29T18:45:01Z</time>
      </trkpt>
      <trkpt lat="59.9541411" lon="17.7128869">
        <ele>46.7612</ele>
        <time>2012-03-29T18:45:11Z</time>
      </trkpt>
      <trkpt lat="59.9542544" lon="17.7129601">
        <ele>47.2418</ele>
        <time>2012-03-29T18:45:19Z</time>
      </trkpt>
      <trkpt lat="59.9543732" lon="17.7129931">
        <ele>46.7612</ele>
        <time>2012-03-29T18:45:27Z</time>
      </trkpt>
      <trkpt lat="59.9544621" lon="17.7130201">
        <ele>44.358</ele>
        <time>2012-03-29T18:45:33Z</time>
      </trkpt>
      <trkpt lat="59.9545609" lon="17.7130739">
        <ele>43.3966</ele>
        <time>2012-03-29T18:45:40Z</time>
      </trkpt>
      <trkpt lat="59.9545894" lon="17.7130861">
        <ele>43.3966</ele>
        <time>2012-03-29T18:45:42Z</time>
      </trkpt>
      <trkpt lat="59.9546713" lon="17.7131497">
        <ele>41.9547</ele>
        <time>2012-03-29T18:45:48Z</time>
      </trkpt>
      <trkpt lat="59.9547282" lon="17.7131817">
        <ele>40.9934</ele>
        <time>2012-03-29T18:45:52Z</time>
      </trkpt>
      <trkpt lat="59.9547398" lon="17.7131912">
        <ele>40.9934</ele>
        <time>2012-03-29T18:45:53Z</time>
      </trkpt>
      <trkpt lat="59.9548415" lon="17.7132984">
        <ele>41.474</ele>
        <time>2012-03-29T18:46:00Z</time>
      </trkpt>
      <trkpt lat="59.9549091" lon="17.7133892">
        <ele>41.9547</ele>
        <time>2012-03-29T18:46:05Z</time>
      </trkpt>
      <trkpt lat="59.9549924" lon="17.7134953">
        <ele>44.358</ele>
        <time>2012-03-29T18:46:12Z</time>
      </trkpt>
      <trkpt lat="59.9550642" lon="17.7136046">
        <ele>46.2806</ele>
        <time>2012-03-29T18:46:18Z</time>
      </trkpt>
      <trkpt lat="59.9551537" lon="17.7137684">
        <ele>47.7225</ele>
        <time>2012-03-29T18:46:27Z</time>
      </trkpt>
      <trkpt lat="59.955233" lon="17.7139252">
        <ele>50.6066</ele>
        <time>2012-03-29T18:46:35Z</time>
      </trkpt>
      <trkpt lat="59.9552879" lon="17.7140555">
        <ele>53.4905</ele>
        <time>2012-03-29T18:46:42Z</time>
      </trkpt>
      <trkpt lat="59.9553241" lon="17.7141065">
        <ele>54.4518</ele>
        <time>2012-03-29T18:46:46Z</time>
      </trkpt>
      <trkpt lat="59.9553453" lon="17.714124">
        <ele>55.4131</ele>
        <time>2012-03-29T18:46:48Z</time>
      </trkpt>
      <trkpt lat="59.9554056" lon="17.714294">
        <ele>56.8551</ele>
        <time>2012-03-29T18:46:56Z</time>
      </trkpt>
      <trkpt lat="59.9554215" lon="17.7144634">
        <ele>56.8551</ele>
        <time>2012-03-29T18:47:04Z</time>
      </trkpt>
      <trkpt lat="59.955455" lon="17.7145965">
        <ele>55.8938</ele>
        <time>2012-03-29T18:47:10Z</time>
      </trkpt>
      <trkpt lat="59.9554721" lon="17.7146661">
        <ele>55.4131</ele>
        <time>2012-03-29T18:47:13Z</time>
      </trkpt>
      <trkpt lat="59.9554887" lon="17.7147499">
        <ele>54.4518</ele>
        <time>2012-03-29T18:47:17Z</time>
      </trkpt>
      <trkpt lat="59.955524" lon="17.714908">
        <ele>53.9712</ele>
        <time>2012-03-29T18:47:24Z</time>
      </trkpt>
      <trkpt lat="59.955511" lon="17.7150073">
        <ele>51.5679</ele>
        <time>2012-03-29T18:47:30Z</time>
      </trkpt>
      <trkpt lat="59.9554944" lon="17.7150089">
        <ele>50.126</ele>
        <time>2012-03-29T18:47:40Z</time>
      </trkpt>
      <trkpt lat="59.9554852" lon="17.715005">
        <ele>50.126</ele>
        <time>2012-03-29T18:47:49Z</time>
      </trkpt>
      <trkpt lat="59.9554733" lon="17.7150094">
        <ele>48.2034</ele>
        <time>2012-03-29T18:48:03Z</time>
      </trkpt>
      <trkpt lat="59.9554692" lon="17.7150172">
        <ele>48.2034</ele>
        <time>2012-03-29T18:48:11Z</time>
      </trkpt>
      <trkpt lat="59.9554567" lon="17.7150046">
        <ele>47.7225</ele>
        <time>2012-03-29T18:48:12Z</time>
      </trkpt>
      <trkpt lat="59.9554271" lon="17.7149937">
        <ele>52.0486</ele>
        <time>2012-03-29T18:48:20Z</time>
      </trkpt>
      <trkpt lat="59.9554299" lon="17.7149861">
        <ele>54.4518</ele>
        <time>2012-03-29T18:49:16Z</time>
      </trkpt>
      <trkpt lat="59.9554385" lon="17.7149772">
        <ele>52.5292</ele>
        <time>2012-03-29T18:49:31Z</time>
      </trkpt>
      <trkpt lat="59.9554329" lon="17.7149649">
        <ele>52.0486</ele>
        <time>2012-03-29T18:49:36Z</time>
      </trkpt>
      <trkpt lat="59.9555076" lon="17.714855">
        <ele>52.0486</ele>
        <time>2012-03-29T18:49:40Z</time>
      </trkpt>
      <trkpt lat="59.9556582" lon="17.7148141">
        <ele>51.5679</ele>
        <time>2012-03-29T18:49:44Z</time>
      </trkpt>
      <trkpt lat="59.955773" lon="17.7150361">
        <ele>51.5679</ele>
        <time>2012-03-29T18:49:48Z</time>
      </trkpt>
      <trkpt lat="59.9558708" lon="17.7152508">
        <ele>51.5679</ele>
        <time>2012-03-29T18:49:51Z</time>
      </trkpt>
      <trkpt lat="59.9560064" lon="17.7153389">
        <ele>51.0872</ele>
        <time>2012-03-29T18:49:55Z</time>
      </trkpt>
      <trkpt lat="59.9560908" lon="17.7154707">
        <ele>51.0872</ele>
        <time>2012-03-29T18:49:57Z</time>
      </trkpt>
      <trkpt lat="59.9563675" lon="17.716134">
        <ele>50.126</ele>
        <time>2012-03-29T18:50:03Z</time>
      </trkpt>
      <trkpt lat="59.9565227" lon="17.7164734">
        <ele>50.6066</ele>
        <time>2012-03-29T18:50:06Z</time>
      </trkpt>
      <trkpt lat="59.9567809" lon="17.7164774">
        <ele>50.6066</ele>
        <time>2012-03-29T18:50:10Z</time>
      </trkpt>
      <trkpt lat="59.9568492" lon="17.7163619">
        <ele>50.126</ele>
        <time>2012-03-29T18:50:11Z</time>
      </trkpt>
      <trkpt lat="59.9572813" lon="17.7155791">
        <ele>44.8386</ele>
        <time>2012-03-29T18:50:17Z</time>
      </trkpt>
      <trkpt lat="59.9574186" lon="17.7153108">
        <ele>43.8773</ele>
        <time>2012-03-29T18:50:20Z</time>
      </trkpt>
    </trkseg>
  </trk>
</gpx>